Observation data for South Plains 3ENE on 01/19/2019      Previous  Date  Next       Current Mesonet Observations  Soil Data  Daily Summary Page  Observations in Plain Language
KSP2 190600Z 35020KT 00/03 A3002 RMK A01 T00000-28  RH  081%=      5-min Rain = 0
KSP2 190601Z 35021G27KT 00/03 A3002 RMK A01 T00000-29  RH  081%=      5-min Rain = 0
KSP2 190602Z 35016G21KT 00/M03 A3002 RMK A01 T00011028  RH  081%=      5-min Rain = 0
KSP2 190603Z 35019G24KT 00/M03 A3003 RMK A01 T00011026  RH  082%=      5-min Rain = 0
KSP2 190604Z 35020G26KT 00/M03 A3003 RMK A01 T00011027  RH  082%=      5-min Rain = 0
KSP2 190605Z 35018G23KT 00/M03 A3003 RMK A01 T00011027  RH  081%=      5-min Rain = 0
KSP2 190606Z 35022G27KT 00/M03 A3003 RMK A01 T00011027  RH  081%=      5-min Rain = 0
KSP2 190607Z 35020G26KT 00/M03 A3003 RMK A01 T00021027  RH  081%=      5-min Rain = 0
KSP2 190608Z 35019G24KT 00/M03 A3003 RMK A01 T00021026  RH  081%=      5-min Rain = 0
KSP2 190609Z 34018KT 00/M03 A3003 RMK A01 T00021026  RH  082%=      5-min Rain = 0
KSP2 190610Z 34019G26KT 00/M03 A3003 RMK A01 T00021026  RH  082%=      5-min Rain = 0
KSP2 190611Z 34022G29KT 00/M03 A3003 RMK A01 T00021025  RH  082%=      5-min Rain = 0
KSP2 190612Z 35019G25KT 00/M03 A3003 RMK A01 T00021025  RH  082%=      5-min Rain = 0
KSP2 190613Z 34021KT 00/M02 A3003 RMK A01 T00021024  RH  083%=      5-min Rain = 0
KSP2 190614Z 34021KT 00/M02 A3003 RMK A01 T00021024  RH  082%=      5-min Rain = 0
KSP2 190615Z 34020G25KT 00/M02 A3003 RMK A01 T00021024  RH  083%=      5-min Rain = 0
KSP2 190616Z 34022G30KT 00/M02 A3003 RMK A01 T00021023  RH  083%=      5-min Rain = 0
KSP2 190617Z 34022G27KT 00/M02 A3003 RMK A01 T00011022  RH  084%=      5-min Rain = 0
KSP2 190618Z 35020KT 00/02 A3003 RMK A01 T00000-21  RH  086%=      5-min Rain = 0
KSP2 190619Z 34022KT M00/M02 A3003 RMK A01 T10011020  RH  087%=      5-min Rain = 0
KSP2 190620Z 35020G25KT M00/M02 A3003 RMK A01 T10011019  RH  088%=      5-min Rain = 0
KSP2 190621Z 35022G27KT M00/M02 A3003 RMK A01 T10021019  RH  088%=      5-min Rain = 0
KSP2 190622Z 35022KT M00/M02 A3004 RMK A01 T10021019  RH  089%=      5-min Rain = 0
KSP2 190623Z 34018G23KT M00/M02 A3004 RMK A01 T10021018  RH  089%=      5-min Rain = 0
KSP2 190624Z 35017G22KT M00/M02 A3004 RMK A01 T10031017  RH  090%=      5-min Rain = 0
KSP2 190625Z 34019KT M00/M02 A3004 RMK A01 T10031017  RH  090%=      5-min Rain = 0
KSP2 190626Z 34015G20KT M00/M02 A3004 RMK A01 T10031018  RH  090%=      5-min Rain = 0
KSP2 190627Z 34018KT M00/M02 A3004 RMK A01 T10031018  RH  090%=      5-min Rain = 0
KSP2 190628Z 35020KT M00/M02 A3004 RMK A01 T10021018  RH  089%=      5-min Rain = 0
KSP2 190629Z 34018KT M00/M02 A3004 RMK A01 T10011019  RH  088%=      5-min Rain = 0
KSP2 190630Z 34016G22KT 00/02 A3004 RMK A01 T00-00-19  RH  087%=      5-min Rain = 0
KSP2 190631Z 34019KT 00/02 A3004 RMK A01 T00000-20  RH  086%=      5-min Rain = 0
KSP2 190632Z 34019KT 00/M02 A3004 RMK A01 T00011021  RH  085%=      5-min Rain = 0
KSP2 190633Z 34019KT 00/M02 A3004 RMK A01 T00021021  RH  084%=      5-min Rain = 0
KSP2 190634Z 34021G26KT 00/M02 A3004 RMK A01 T00021022  RH  084%=      5-min Rain = 0
KSP2 190635Z 34018G25KT 00/M02 A3004 RMK A01 T00031023  RH  083%=      5-min Rain = 0
KSP2 190636Z 34020G28KT 00/M02 A3004 RMK A01 T00031023  RH  083%=      5-min Rain = 0
KSP2 190637Z 35020G26KT 00/M02 A3004 RMK A01 T00031023  RH  083%=      5-min Rain = 0
KSP2 190638Z 34018KT 00/M02 A3004 RMK A01 T00041022  RH  083%=      5-min Rain = 0
KSP2 190639Z 34021G27KT 00/M02 A3004 RMK A01 T00041022  RH  083%=      5-min Rain = 0
KSP2 190640Z 34020KT 00/M02 A3004 RMK A01 T00041023  RH  082%=      5-min Rain = 0
KSP2 190641Z 33018G23KT 00/M02 A3004 RMK A01 T00041024  RH  082%=      5-min Rain = 0
KSP2 190642Z 33020G27KT 00/M02 A3004 RMK A01 T00041023  RH  082%=      5-min Rain = 0
KSP2 190643Z 33020KT 00/M02 A3004 RMK A01 T00041024  RH  082%=      5-min Rain = 0
KSP2 190644Z 33019KT 00/M02 A3004 RMK A01 T00041024  RH  082%=      5-min Rain = 0
KSP2 190645Z 33018KT 00/M02 A3004 RMK A01 T00041023  RH  082%=      5-min Rain = 0
KSP2 190646Z 34015KT 00/M02 A3004 RMK A01 T00041023  RH  082%=      5-min Rain = 0
KSP2 190647Z 34018G24KT 00/M02 A3004 RMK A01 T00041022  RH  083%=      5-min Rain = 0
KSP2 190648Z 34019KT 00/M02 A3004 RMK A01 T00041022  RH  082%=      5-min Rain = 0
KSP2 190649Z 33021KT 00/M02 A3004 RMK A01 T00041022  RH  082%=      5-min Rain = 0
KSP2 190650Z 33020G25KT 00/M02 A3005 RMK A01 T00041022  RH  082%=      5-min Rain = 0
KSP2 190651Z 33022KT 00/M02 A3004 RMK A01 T00041023  RH  082%=      5-min Rain = 0
KSP2 190652Z 33019G25KT 00/M02 A3005 RMK A01 T00041022  RH  082%=      5-min Rain = 0
KSP2 190653Z 33020G25KT 01/M02 A3005 RMK A01 T00051021  RH  083%=      5-min Rain = 0
KSP2 190654Z 33019KT 00/M02 A3005 RMK A01 T00041021  RH  083%=      5-min Rain = 0
KSP2 190655Z 33020KT 01/M02 A3005 RMK A01 T00051021  RH  083%=      5-min Rain = 0
KSP2 190656Z 34017G22KT 01/M02 A3005 RMK A01 T00051021  RH  083%=      5-min Rain = 0
KSP2 190657Z 33019G24KT 01/M02 A3005 RMK A01 T00051021  RH  083%=      5-min Rain = 0
KSP2 190658Z 34021G26KT 00/M02 A3005 RMK A01 T00041021  RH  083%=      5-min Rain = 0
KSP2 190659Z 34020KT 01/M02 A3005 RMK A01 T00051022  RH  083%=      5-min Rain = 0
KSP2 190700Z 33018KT 01/M02 A3005 RMK A01 T00051021  RH  083%=      5-min Rain = 0
KSP2 190701Z 34016KT 01/M02 A3005 RMK A01 T00051021  RH  083%=      5-min Rain = 0
KSP2 190702Z 34018G23KT 01/M02 A3005 RMK A01 T00051020  RH  083%=      5-min Rain = 0
KSP2 190703Z 34019G24KT 01/M02 A3005 RMK A01 T00051021  RH  083%=      5-min Rain = 0
KSP2 190704Z 34017G25KT 01/M02 A3005 RMK A01 T00051021  RH  083%=      5-min Rain = 0
KSP2 190705Z 34017KT 01/M02 A3005 RMK A01 T00051021  RH  083%=      5-min Rain = 0
KSP2 190706Z 34019G25KT 01/M02 A3005 RMK A01 T00051020  RH  083%=      5-min Rain = 0
KSP2 190707Z 34015G21KT 01/M02 A3005 RMK A01 T00051020  RH  083%=      5-min Rain = 0
KSP2 190708Z 34017KT 01/M02 A3005 RMK A01 T00051020  RH  083%=      5-min Rain = 0
KSP2 190709Z 34016G22KT 01/M02 A3005 RMK A01 T00051020  RH  083%=      5-min Rain = 0
KSP2 190710Z 34018KT 01/M02 A3005 RMK A01 T00051020  RH  083%=      5-min Rain = 0
KSP2 190711Z 33015KT 01/M02 A3005 RMK A01 T00061019  RH  083%=      5-min Rain = 0
KSP2 190712Z 33015G21KT 01/M02 A3005 RMK A01 T00051020  RH  083%=      5-min Rain = 0
KSP2 190713Z 34017G22KT 01/M02 A3005 RMK A01 T00051019  RH  083%=      5-min Rain = 0
KSP2 190714Z 34016KT 01/M02 A3005 RMK A01 T00051020  RH  083%=      5-min Rain = 0
KSP2 190715Z 33017KT 01/M02 A3005 RMK A01 T00061019  RH  083%=      5-min Rain = 0
KSP2 190716Z 33018KT 01/M02 A3005 RMK A01 T00061019  RH  083%=      5-min Rain = 0
KSP2 190717Z 33018KT 01/M02 A3005 RMK A01 T00061020  RH  083%=      5-min Rain = 0
KSP2 190718Z 33016KT 01/M02 A3005 RMK A01 T00061020  RH  083%=      5-min Rain = 0
KSP2 190719Z 33016G24KT 01/M02 A3005 RMK A01 T00061019  RH  083%=      5-min Rain = 0
KSP2 190720Z 33019KT 01/M02 A3005 RMK A01 T00061019  RH  083%=      5-min Rain = 0
KSP2 190721Z 33017G22KT 01/M02 A3005 RMK A01 T00061019  RH  083%=      5-min Rain = 0
KSP2 190722Z 33016KT 01/M02 A3005 RMK A01 T00071019  RH  083%=      5-min Rain = 0
KSP2 190723Z 33014KT 01/M02 A3005 RMK A01 T00061019  RH  083%=      5-min Rain = 0
KSP2 190724Z 34015KT 01/M02 A3005 RMK A01 T00061019  RH  083%=      5-min Rain = 0
KSP2 190725Z 33017KT 01/M02 A3005 RMK A01 T00071018  RH  083%=      5-min Rain = 0
KSP2 190726Z 33016G21KT 01/M02 A3005 RMK A01 T00071019  RH  083%=      5-min Rain = 0
KSP2 190727Z 33016G21KT 01/M02 A3005 RMK A01 T00071019  RH  083%=      5-min Rain = 0
KSP2 190728Z 33016KT 01/M02 A3005 RMK A01 T00071018  RH  083%=      5-min Rain = 0
KSP2 190729Z 33020KT 01/M02 A3005 RMK A01 T00071019  RH  083%=      5-min Rain = 0
KSP2 190730Z 33019KT 01/M02 A3005 RMK A01 T00081019  RH  082%=      5-min Rain = 0
KSP2 190731Z 33019KT 01/M02 A3005 RMK A01 T00081019  RH  082%=      5-min Rain = 0
KSP2 190732Z 33018KT 01/M02 A3005 RMK A01 T00081020  RH  082%=      5-min Rain = 0
KSP2 190733Z 33016KT 01/M02 A3005 RMK A01 T00081019  RH  082%=      5-min Rain = 0
KSP2 190734Z 33017KT 01/M02 A3006 RMK A01 T00081019  RH  082%=      5-min Rain = 0
KSP2 190735Z 33017G22KT 01/M02 A3006 RMK A01 T00081019  RH  082%=      5-min Rain = 0
KSP2 190736Z 33015KT 01/M02 A3006 RMK A01 T00081020  RH  081%=      5-min Rain = 0
KSP2 190737Z 33018KT 01/M02 A3006 RMK A01 T00091019  RH  082%=      5-min Rain = 0
KSP2 190738Z 33019KT 01/M02 A3006 RMK A01 T00091020  RH  081%=      5-min Rain = 0
KSP2 190739Z 33017KT 01/M02 A3006 RMK A01 T00091020  RH  081%=      5-min Rain = 0
KSP2 190740Z 34015KT 01/M02 A3006 RMK A01 T00081020  RH  081%=      5-min Rain = 0
KSP2 190741Z 33016KT 01/M02 A3006 RMK A01 T00081020  RH  081%=      5-min Rain = 0
KSP2 190742Z 33017G24KT 01/M02 A3006 RMK A01 T00091021  RH  081%=      5-min Rain = 0
KSP2 190743Z 33019G24KT 01/M02 A3006 RMK A01 T00091021  RH  080%=      5-min Rain = 0
KSP2 190744Z 33018KT 01/M02 A3006 RMK A01 T00091022  RH  080%=      5-min Rain = 0
KSP2 190745Z 33019KT 01/M02 A3006 RMK A01 T00091022  RH  080%=      5-min Rain = 0
KSP2 190746Z 33017G22KT 01/M02 A3006 RMK A01 T00091022  RH  080%=      5-min Rain = 0
KSP2 190747Z 33017KT 01/M02 A3006 RMK A01 T00091022  RH  080%=      5-min Rain = 0
KSP2 190748Z 33019G25KT 01/M02 A3006 RMK A01 T00091022  RH  080%=      5-min Rain = 0
KSP2 190749Z 33019G24KT 01/M02 A3006 RMK A01 T00081023  RH  079%=      5-min Rain = 0
KSP2 190750Z 33020KT 01/M02 A3006 RMK A01 T00081024  RH  079%=      5-min Rain = 0
KSP2 190751Z 33019G24KT 01/M02 A3006 RMK A01 T00091023  RH  079%=      5-min Rain = 0
KSP2 190752Z 33021G26KT 01/M02 A3006 RMK A01 T00081024  RH  079%=      5-min Rain = 0
KSP2 190753Z 33023G30KT 01/M03 A3006 RMK A01 T00081025  RH  079%=      5-min Rain = 0
KSP2 190754Z 33020G26KT 01/M03 A3006 RMK A01 T00081026  RH  078%=      5-min Rain = 0
KSP2 190755Z 34024G30KT 01/M03 A3006 RMK A01 T00081026  RH  078%=      5-min Rain = 0
KSP2 190756Z 34022G28KT 01/M03 A3006 RMK A01 T00081027  RH  077%=      5-min Rain = 0
KSP2 190757Z 34021G28KT 01/M03 A3006 RMK A01 T00071027  RH  078%=      5-min Rain = 0
KSP2 190758Z 33022G28KT 01/M03 A3006 RMK A01 T00071028  RH  077%=      5-min Rain = 0
KSP2 190759Z 33021G26KT 01/M03 A3006 RMK A01 T00071029  RH  077%=      5-min Rain = 0
KSP2 190800Z 34022G27KT 01/M03 A3006 RMK A01 T00061029  RH  077%=      5-min Rain = 0
KSP2 190801Z 33022KT 01/M03 A3006 RMK A01 T00061029  RH  077%=      5-min Rain = 0
KSP2 190802Z 34022KT 01/M03 A3006 RMK A01 T00061030  RH  077%=      5-min Rain = 0
KSP2 190803Z 33021KT 01/M03 A3007 RMK A01 T00061030  RH  077%=      5-min Rain = 0
KSP2 190804Z 33020KT 01/M03 A3007 RMK A01 T00061030  RH  077%=      5-min Rain = 0
KSP2 190805Z 33019KT 01/M03 A3006 RMK A01 T00051030  RH  077%=      5-min Rain = 0
KSP2 190806Z 34018KT 01/M03 A3007 RMK A01 T00051029  RH  078%=      5-min Rain = 0
KSP2 190807Z 33017KT 00/M03 A3007 RMK A01 T00041029  RH  078%=      5-min Rain = 0
KSP2 190808Z 33018KT 00/M03 A3007 RMK A01 T00041029  RH  079%=      5-min Rain = 0
KSP2 190809Z 33016KT 00/M03 A3007 RMK A01 T00031029  RH  079%=      5-min Rain = 0
KSP2 190810Z 33022KT 00/M03 A3007 RMK A01 T00031030  RH  079%=      5-min Rain = 0
KSP2 190811Z 33019KT 00/M03 A3007 RMK A01 T00031030  RH  079%=      5-min Rain = 0
KSP2 190812Z 33021G26KT 00/M03 A3007 RMK A01 T00021030  RH  079%=      5-min Rain = 0
KSP2 190813Z 33021KT 00/M03 A3007 RMK A01 T00021030  RH  079%=      5-min Rain = 0
KSP2 190814Z 33019KT 00/M03 A3007 RMK A01 T00021031  RH  079%=      5-min Rain = 0
KSP2 190815Z 34020KT 00/M03 A3007 RMK A01 T00011031  RH  079%=      5-min Rain = 0
KSP2 190816Z 34022KT 00/M03 A3007 RMK A01 T00011031  RH  079%=      5-min Rain = 0
KSP2 190817Z 34019KT 00/M03 A3007 RMK A01 T00011031  RH  079%=      5-min Rain = 0
KSP2 190818Z 33019KT 00/M03 A3007 RMK A01 T00011031  RH  079%=      5-min Rain = 0
KSP2 190819Z 33018KT 00/M03 A3007 RMK A01 T00011031  RH  079%=      5-min Rain = 0
KSP2 190820Z 33017G22KT 00/03 A3007 RMK A01 T00-00-31  RH  080%=      5-min Rain = 0
KSP2 190821Z 33020KT M00/M03 A3007 RMK A01 T10011031  RH  080%=      5-min Rain = 0
KSP2 190822Z 33019KT M00/M03 A3007 RMK A01 T10011032  RH  080%=      5-min Rain = 0
KSP2 190823Z 33023G28KT M00/M03 A3007 RMK A01 T10011032  RH  079%=      5-min Rain = 0
KSP2 190824Z 33022G28KT M00/M03 A3007 RMK A01 T10011034  RH  079%=      5-min Rain = 0
KSP2 190825Z 33018KT M00/M03 A3007 RMK A01 T10021034  RH  079%=      5-min Rain = 0
KSP2 190826Z 33021G26KT M00/M03 A3007 RMK A01 T10031034  RH  080%=      5-min Rain = 0
KSP2 190827Z 34021KT M00/M03 A3007 RMK A01 T10031034  RH  079%=      5-min Rain = 0
KSP2 190828Z 33021KT M00/M04 A3007 RMK A01 T10031035  RH  079%=      5-min Rain = 0
KSP2 190829Z 33020KT M00/M04 A3008 RMK A01 T10031035  RH  079%=      5-min Rain = 0
KSP2 190830Z 33018G23KT M00/M04 A3008 RMK A01 T10041035  RH  079%=      5-min Rain = 0
KSP2 190831Z 33020KT M00/M04 A3008 RMK A01 T10041035  RH  079%=      5-min Rain = 0
KSP2 190832Z 33021G28KT M00/M04 A3008 RMK A01 T10041036  RH  079%=      5-min Rain = 0
KSP2 190833Z 33022KT M00/M04 A3008 RMK A01 T10041037  RH  079%=      5-min Rain = 0
KSP2 190834Z 33020G26KT M00/M04 A3008 RMK A01 T10041037  RH  079%=      5-min Rain = 0
KSP2 190835Z 34023KT M00/M04 A3008 RMK A01 T10041037  RH  079%=      5-min Rain = 0
KSP2 190836Z 34020KT M01/M04 A3008 RMK A01 T10051038  RH  078%=      5-min Rain = 0
KSP2 190837Z 34022KT M01/M04 A3008 RMK A01 T10051038  RH  079%=      5-min Rain = 0
KSP2 190838Z 34018KT M01/M04 A3008 RMK A01 T10051038  RH  079%=      5-min Rain = 0
KSP2 190839Z 34021KT M01/M04 A3008 RMK A01 T10061037  RH  079%=      5-min Rain = 0
KSP2 190840Z 34017G22KT M01/M04 A3008 RMK A01 T10061038  RH  079%=      5-min Rain = 0
KSP2 190841Z 35016KT M01/M04 A3008 RMK A01 T10061037  RH  079%=      5-min Rain = 0
KSP2 190842Z 34017G22KT M01/M04 A3008 RMK A01 T10071037  RH  080%=      5-min Rain = 0
KSP2 190843Z 34018G24KT M01/M04 A3008 RMK A01 T10071037  RH  080%=      5-min Rain = 0
KSP2 190844Z 34018KT M01/M04 A3009 RMK A01 T10071038  RH  079%=      5-min Rain = 0
KSP2 190845Z 34015G21KT M01/M04 A3009 RMK A01 T10071038  RH  080%=      5-min Rain = 0
KSP2 190846Z 34018G23KT M01/M04 A3009 RMK A01 T10071038  RH  080%=      5-min Rain = 0
KSP2 190847Z 35020G28KT M01/M04 A3009 RMK A01 T10071039  RH  079%=      5-min Rain = 0
KSP2 190848Z 34021G26KT M01/M04 A3008 RMK A01 T10061040  RH  078%=      5-min Rain = 0
KSP2 190849Z 35022KT M01/M04 A3008 RMK A01 T10051042  RH  076%=      5-min Rain = 0
KSP2 190850Z 35022G29KT M00/M04 A3009 RMK A01 T10041042  RH  076%=      5-min Rain = 0
KSP2 190851Z 35026KT M00/M04 A3009 RMK A01 T10041042  RH  075%=      5-min Rain = 0
KSP2 190852Z 35019G27KT M00/M04 A3009 RMK A01 T10041043  RH  075%=      5-min Rain = 0
KSP2 190853Z 36021G26KT M00/M04 A3009 RMK A01 T10041043  RH  075%=      5-min Rain = 0
KSP2 190854Z 35020KT M00/M04 A3009 RMK A01 T10041044  RH  074%=      5-min Rain = 0
KSP2 190855Z 35019G26KT M00/M04 A3009 RMK A01 T10041044  RH  074%=      5-min Rain = 0
KSP2 190856Z 35017KT M01/M04 A3009 RMK A01 T10051044  RH  075%=      5-min Rain = 0
KSP2 190857Z 36018KT M01/M04 A3009 RMK A01 T10061044  RH  076%=      5-min Rain = 0
KSP2 190858Z 35016KT M01/M04 A3009 RMK A01 T10061044  RH  076%=      5-min Rain = 0
KSP2 190859Z 35016KT M01/M04 A3009 RMK A01 T10071044  RH  076%=      5-min Rain = 0
KSP2 190900Z 34016KT M01/M04 A3009 RMK A01 T10071043  RH  076%=      5-min Rain = 0
KSP2 190901Z 34013KT M01/M04 A3009 RMK A01 T10071043  RH  077%=      5-min Rain = 0
KSP2 190902Z 34010KT M01/M04 A301 RMK A01 T10081042  RH  078%=      5-min Rain = 0
KSP2 190903Z 34012KT M01/M04 A3009 RMK A01 T10081041  RH  079%=      5-min Rain = 0
KSP2 190904Z 33013KT M01/M04 A3009 RMK A01 T10091041  RH  079%=      5-min Rain = 0
KSP2 190905Z 34013KT M01/M04 A301 RMK A01 T10091041  RH  079%=      5-min Rain = 0
KSP2 190906Z 33014KT M01/M04 A301 RMK A01 T10091041  RH  079%=      5-min Rain = 0
KSP2 190907Z 33013KT M01/M04 A301 RMK A01 T10091041  RH  079%=      5-min Rain = 0
KSP2 190908Z 33011KT M01/M04 A301 RMK A01 T10091041  RH  079%=      5-min Rain = 0
KSP2 190909Z 34014KT M01/M04 A301 RMK A01 T10091040  RH  079%=      5-min Rain = 0
KSP2 190910Z 33018KT M01/M04 A301 RMK A01 T10091041  RH  079%=      5-min Rain = 0
KSP2 190911Z 34018KT M01/M04 A301 RMK A01 T10081042  RH  078%=      5-min Rain = 0
KSP2 190912Z 34018G23KT M01/M04 A301 RMK A01 T10081043  RH  077%=      5-min Rain = 0
KSP2 190913Z 34022KT M01/M05 A301 RMK A01 T10081045  RH  076%=      5-min Rain = 0
KSP2 190914Z 34021G26KT M01/M05 A301 RMK A01 T10071046  RH  075%=      5-min Rain = 0
KSP2 190915Z 34018G26KT M01/M05 A3011 RMK A01 T10071046  RH  075%=      5-min Rain = 0
KSP2 190916Z 34024G31KT M01/M05 A3011 RMK A01 T10071047  RH  074%=      5-min Rain = 0
KSP2 190917Z 34025G31KT M01/M05 A3011 RMK A01 T10071050  RH  073%=      5-min Rain = 0
KSP2 190918Z 34021G26KT M01/M05 A3011 RMK A01 T10071049  RH  073%=      5-min Rain = 0
KSP2 190919Z 34021G26KT M01/M05 A3011 RMK A01 T10071049  RH  073%=      5-min Rain = 0
KSP2 190920Z 34020KT M01/M05 A3011 RMK A01 T10081049  RH  073%=      5-min Rain = 0
KSP2 190921Z 34019G26KT M01/M05 A3011 RMK A01 T10081049  RH  074%=      5-min Rain = 0
KSP2 190922Z 34020G25KT M01/M05 A3011 RMK A01 T10081049  RH  074%=      5-min Rain = 0
KSP2 190923Z 34017G23KT M01/M05 A3011 RMK A01 T10091049  RH  074%=      5-min Rain = 0
KSP2 190924Z 34018KT M01/M05 A3011 RMK A01 T10091048  RH  075%=      5-min Rain = 0
KSP2 190925Z 34016KT M01/M05 A3011 RMK A01 T10091048  RH  075%=      5-min Rain = 0
KSP2 190926Z 34015KT M01/M05 A3011 RMK A01 T10101049  RH  075%=      5-min Rain = 0
KSP2 190927Z 34017KT M01/M05 A3011 RMK A01 T10101049  RH  075%=      5-min Rain = 0
KSP2 190928Z 34017KT M01/M05 A3011 RMK A01 T10101049  RH  075%=      5-min Rain = 0
KSP2 190929Z 34016G21KT M01/M05 A3011 RMK A01 T10101050  RH  074%=      5-min Rain = 0
KSP2 190930Z 33017KT M01/M05 A3011 RMK A01 T10101050  RH  075%=      5-min Rain = 0
KSP2 190931Z 33014KT M01/M05 A3012 RMK A01 T10101049  RH  075%=      5-min Rain = 0
KSP2 190932Z 33013KT M01/M05 A3012 RMK A01 T10101049  RH  075%=      5-min Rain = 0
KSP2 190933Z 33012KT M01/M05 A3012 RMK A01 T10111048  RH  076%=      5-min Rain = 0
KSP2 190934Z 32012KT M01/M05 A3012 RMK A01 T10121047  RH  077%=      5-min Rain = 0
KSP2 190935Z 32011KT M01/M05 A3012 RMK A01 T10121047  RH  077%=      5-min Rain = 0
KSP2 190936Z 32014KT M01/M05 A3012 RMK A01 T10121047  RH  078%=      5-min Rain = 0
KSP2 190937Z 32017KT M01/M05 A3012 RMK A01 T10131046  RH  078%=      5-min Rain = 0
KSP2 190938Z 33016KT M01/M05 A3012 RMK A01 T10121046  RH  078%=      5-min Rain = 0
KSP2 190939Z 32015KT M01/M05 A3012 RMK A01 T10121045  RH  078%=      5-min Rain = 0
KSP2 190940Z 33016KT M01/M05 A3012 RMK A01 T10121045  RH  078%=      5-min Rain = 0
KSP2 190941Z 33014KT M01/M04 A3012 RMK A01 T10121044  RH  078%=      5-min Rain = 0
KSP2 190942Z 33016KT M01/M05 A3012 RMK A01 T10121045  RH  079%=      5-min Rain = 0
KSP2 190943Z 33016KT M01/M04 A3012 RMK A01 T10121044  RH  079%=      5-min Rain = 0
KSP2 190944Z 33016KT M01/M05 A3012 RMK A01 T10121045  RH  079%=      5-min Rain = 0
KSP2 190945Z 33015KT M01/M05 A3012 RMK A01 T10131045  RH  079%=      5-min Rain = 0
KSP2 190946Z 33015KT M01/M05 A3012 RMK A01 T10131045  RH  079%=      5-min Rain = 0
KSP2 190947Z 33015KT M01/M05 A3012 RMK A01 T10131045  RH  079%=      5-min Rain = 0
KSP2 190948Z 33013KT M01/M05 A3012 RMK A01 T10131045  RH  079%=      5-min Rain = 0
KSP2 190949Z 33011KT M01/M05 A3012 RMK A01 T10141045  RH  079%=      5-min Rain = 0
KSP2 190950Z 33012KT M01/M05 A3012 RMK A01 T10141045  RH  080%=      5-min Rain = 0
KSP2 190951Z 33011KT M02/M05 A3012 RMK A01 T10151045  RH  080%=      5-min Rain = 0
KSP2 190952Z 33013KT M02/M05 A3012 RMK A01 T10151045  RH  080%=      5-min Rain = 0
KSP2 190953Z 33013KT M01/M05 A3013 RMK A01 T10141045  RH  080%=      5-min Rain = 0
KSP2 190954Z 33011KT M02/M05 A3013 RMK A01 T10151046  RH  080%=      5-min Rain = 0
KSP2 190955Z 33016KT M02/M05 A3013 RMK A01 T10161046  RH  080%=      5-min Rain = 0
KSP2 190956Z 33014G19KT M02/M05 A3013 RMK A01 T10151046  RH  080%=      5-min Rain = 0
KSP2 190957Z 33015KT M02/M05 A3013 RMK A01 T10151046  RH  079%=      5-min Rain = 0
KSP2 190958Z 32014KT M02/M05 A3013 RMK A01 T10151046  RH  079%=      5-min Rain = 0
KSP2 190959Z 33015KT M02/M05 A3013 RMK A01 T10151046  RH  079%=      5-min Rain = 0
KSP2 191000Z 33014KT M02/M05 A3013 RMK A01 T10151046  RH  079%=      5-min Rain = 0
KSP2 191001Z 32014KT M02/M05 A3013 RMK A01 T10151046  RH  079%=      5-min Rain = 0
KSP2 191002Z 33017KT M02/M05 A3013 RMK A01 T10151046  RH  080%=      5-min Rain = 0
KSP2 191003Z 33015KT M02/M05 A3013 RMK A01 T10151046  RH  079%=      5-min Rain = 0
KSP2 191004Z 33014KT M02/M05 A3013 RMK A01 T10161046  RH  080%=      5-min Rain = 0
KSP2 191005Z 33014KT M02/M05 A3013 RMK A01 T10161046  RH  080%=      5-min Rain = 0
KSP2 191006Z 33016KT M02/M05 A3013 RMK A01 T10171047  RH  080%=      5-min Rain = 0
KSP2 191007Z 33016KT M02/M05 A3013 RMK A01 T10161047  RH  080%=      5-min Rain = 0
KSP2 191008Z 33015KT M02/M05 A3013 RMK A01 T10161047  RH  080%=      5-min Rain = 0
KSP2 191009Z 33016KT M02/M05 A3013 RMK A01 T10171047  RH  080%=      5-min Rain = 0
KSP2 191010Z 33014KT M02/M05 A3013 RMK A01 T10161046  RH  080%=      5-min Rain = 0
KSP2 191011Z 33018KT M02/M05 A3013 RMK A01 T10161047  RH  079%=      5-min Rain = 0
KSP2 191012Z 33016KT M02/M05 A3013 RMK A01 T10151048  RH  078%=      5-min Rain = 0
KSP2 191013Z 34016KT M02/M05 A3013 RMK A01 T10151049  RH  078%=      5-min Rain = 0
KSP2 191014Z 34014G19KT M02/M05 A3013 RMK A01 T10151049  RH  078%=      5-min Rain = 0
KSP2 191015Z 34013G18KT M02/M05 A3014 RMK A01 T10151048  RH  078%=      5-min Rain = 0
KSP2 191016Z 34015G20KT M02/M05 A3014 RMK A01 T10151049  RH  078%=      5-min Rain = 0
KSP2 191017Z 34019KT M02/M05 A3013 RMK A01 T10161050  RH  078%=      5-min Rain = 0
KSP2 191018Z 34017KT M02/M05 A3013 RMK A01 T10151050  RH  077%=      5-min Rain = 0
KSP2 191019Z 34018KT M02/M05 A3014 RMK A01 T10151051  RH  076%=      5-min Rain = 0
KSP2 191020Z 34020KT M02/M05 A3014 RMK A01 T10151052  RH  076%=      5-min Rain = 0
KSP2 191021Z 34018KT M01/M05 A3013 RMK A01 T10141052  RH  075%=      5-min Rain = 0
KSP2 191022Z 34015KT M01/M05 A3013 RMK A01 T10141052  RH  075%=      5-min Rain = 0
KSP2 191023Z 34015KT M01/M05 A3013 RMK A01 T10141051  RH  076%=      5-min Rain = 0
KSP2 191024Z 34016KT M02/M05 A3013 RMK A01 T10151051  RH  076%=      5-min Rain = 0
KSP2 191025Z 35014G21KT M02/M05 A3014 RMK A01 T10151052  RH  076%=      5-min Rain = 0
KSP2 191026Z 35020KT M02/M05 A3014 RMK A01 T10151053  RH  076%=      5-min Rain = 0
KSP2 191027Z 35017KT M02/M05 A3013 RMK A01 T10151053  RH  075%=      5-min Rain = 0
KSP2 191028Z 34014G19KT M01/M05 A3014 RMK A01 T10141053  RH  075%=      5-min Rain = 0
KSP2 191029Z 35016G21KT M02/M05 A3014 RMK A01 T10151053  RH  075%=      5-min Rain = 0
KSP2 191030Z 35015KT M02/M05 A3014 RMK A01 T10151053  RH  075%=      5-min Rain = 0
KSP2 191031Z 34015KT M02/M05 A3014 RMK A01 T10161053  RH  076%=      5-min Rain = 0
KSP2 191032Z 34014KT M02/M05 A3014 RMK A01 T10161053  RH  076%=      5-min Rain = 0
KSP2 191033Z 34016KT M02/M05 A3014 RMK A01 T10161053  RH  076%=      5-min Rain = 0
KSP2 191034Z 34016KT M02/M05 A3014 RMK A01 T10161053  RH  076%=      5-min Rain = 0
KSP2 191035Z 34015KT M02/M05 A3014 RMK A01 T10161052  RH  076%=      5-min Rain = 0
KSP2 191036Z 34014G19KT M02/M05 A3014 RMK A01 T10161053  RH  076%=      5-min Rain = 0
KSP2 191037Z 34013G18KT M02/M05 A3014 RMK A01 T10171052  RH  077%=      5-min Rain = 0
KSP2 191038Z 34012G17KT M02/M05 A3014 RMK A01 T10171052  RH  077%=      5-min Rain = 0
KSP2 191039Z 33013KT M02/M05 A3014 RMK A01 T10181052  RH  078%=      5-min Rain = 0
KSP2 191040Z 33012KT M02/M05 A3014 RMK A01 T10181052  RH  078%=      5-min Rain = 0
KSP2 191041Z 33013KT M02/M05 A3014 RMK A01 T10191052  RH  078%=      5-min Rain = 0
KSP2 191042Z 33012KT M02/M05 A3014 RMK A01 T10201052  RH  078%=      5-min Rain = 0
KSP2 191043Z 31012KT M02/M05 A3015 RMK A01 T10201052  RH  079%=      5-min Rain = 0
KSP2 191044Z 31013G18KT M02/M05 A3015 RMK A01 T10211052  RH  079%=      5-min Rain = 0
KSP2 191045Z 32016KT M02/M05 A3015 RMK A01 T10201051  RH  080%=      5-min Rain = 0
KSP2 191046Z 32017KT M02/M05 A3015 RMK A01 T10191050  RH  080%=      5-min Rain = 0
KSP2 191047Z 32014G19KT M02/M05 A3015 RMK A01 T10191049  RH  080%=      5-min Rain = 0
KSP2 191048Z 32014KT M02/M05 A3015 RMK A01 T10191049  RH  080%=      5-min Rain = 0
KSP2 191049Z 32015KT M02/M05 A3015 RMK A01 T10201049  RH  080%=      5-min Rain = 0
KSP2 191050Z 32015KT M02/M05 A3015 RMK A01 T10201049  RH  081%=      5-min Rain = 0
KSP2 191051Z 32015KT M02/M05 A3015 RMK A01 T10201049  RH  081%=      5-min Rain = 0
KSP2 191052Z 32013KT M02/M05 A3015 RMK A01 T10211049  RH  081%=      5-min Rain = 0
KSP2 191053Z 32015KT M02/M05 A3015 RMK A01 T10211049  RH  081%=      5-min Rain = 0
KSP2 191054Z 32016KT M02/M05 A3015 RMK A01 T10211049  RH  081%=      5-min Rain = 0
KSP2 191055Z 32018KT M02/M05 A3015 RMK A01 T10211049  RH  081%=      5-min Rain = 0
KSP2 191056Z 33018KT M02/M05 A3015 RMK A01 T10211050  RH  081%=      5-min Rain = 0
KSP2 191057Z 33015KT M02/M05 A3015 RMK A01 T10211050  RH  081%=      5-min Rain = 0
KSP2 191058Z 33015KT M02/M05 A3015 RMK A01 T10211050  RH  081%=      5-min Rain = 0
KSP2 191059Z 32018KT M02/M05 A3015 RMK A01 T10221050  RH  081%=      5-min Rain = 0
KSP2 191100Z 32016KT M02/M05 A3015 RMK A01 T10221050  RH  081%=      5-min Rain = 0
KSP2 191101Z 32017KT M02/M05 A3015 RMK A01 T10221049  RH  081%=      5-min Rain = 0
KSP2 191102Z 32014KT M02/M05 A3015 RMK A01 T10221050  RH  081%=      5-min Rain = 0
KSP2 191103Z 32014KT M02/M05 A3015 RMK A01 T10231050  RH  081%=      5-min Rain = 0
KSP2 191104Z 32014KT M02/M05 A3015 RMK A01 T10231050  RH  082%=      5-min Rain = 0
KSP2 191105Z 32015KT M02/M05 A3015 RMK A01 T10241051  RH  082%=      5-min Rain = 0
KSP2 191106Z 32016KT M02/M05 A3016 RMK A01 T10241051  RH  082%=      5-min Rain = 0
KSP2 191107Z 32016KT M02/M05 A3016 RMK A01 T10241051  RH  082%=      5-min Rain = 0
KSP2 191108Z 32016KT M02/M05 A3016 RMK A01 T10241051  RH  082%=      5-min Rain = 0
KSP2 191109Z 33016KT M02/M05 A3015 RMK A01 T10241051  RH  081%=      5-min Rain = 0
KSP2 191110Z 33016KT M02/M05 A3016 RMK A01 T10231051  RH  081%=      5-min Rain = 0
KSP2 191111Z 32015KT M02/M05 A3016 RMK A01 T10241051  RH  081%=      5-min Rain = 0
KSP2 191112Z 32017KT M02/M05 A3016 RMK A01 T10241052  RH  081%=      5-min Rain = 0
KSP2 191113Z 32015KT M02/M05 A3016 RMK A01 T10241052  RH  081%=      5-min Rain = 0
KSP2 191114Z 32015KT M02/M05 A3016 RMK A01 T10241052  RH  081%=      5-min Rain = 0
KSP2 191115Z 32017KT M02/M05 A3016 RMK A01 T10241052  RH  081%=      5-min Rain = 0
KSP2 191116Z 32017KT M02/M05 A3016 RMK A01 T10241052  RH  081%=      5-min Rain = 0
KSP2 191117Z 33014KT M02/M05 A3016 RMK A01 T10241052  RH  081%=      5-min Rain = 0
KSP2 191118Z 32014KT M02/M05 A3016 RMK A01 T10241052  RH  081%=      5-min Rain = 0
KSP2 191119Z 32013KT M02/M05 A3016 RMK A01 T10241052  RH  081%=      5-min Rain = 0
KSP2 191120Z 32014KT M03/M05 A3016 RMK A01 T10251052  RH  081%=      5-min Rain = 0
KSP2 191121Z 32014KT M03/M05 A3016 RMK A01 T10251052  RH  081%=      5-min Rain = 0
KSP2 191122Z 32014KT M03/M05 A3016 RMK A01 T10261053  RH  082%=      5-min Rain = 0
KSP2 191123Z 32015KT M03/M05 A3016 RMK A01 T10251053  RH  082%=      5-min Rain = 0
KSP2 191124Z 32015KT M03/M05 A3016 RMK A01 T10251053  RH  082%=      5-min Rain = 0
KSP2 191125Z 32017KT M03/M05 A3016 RMK A01 T10251052  RH  082%=      5-min Rain = 0
KSP2 191126Z 33016KT M03/M05 A3016 RMK A01 T10251052  RH  081%=      5-min Rain = 0
KSP2 191127Z 32015KT M03/M05 A3016 RMK A01 T10251052  RH  081%=      5-min Rain = 0
KSP2 191128Z 32015KT M03/M05 A3016 RMK A01 T10251053  RH  081%=      5-min Rain = 0
KSP2 191129Z 32014KT M03/M05 A3016 RMK A01 T10251052  RH  081%=      5-min Rain = 0
KSP2 191130Z 32013KT M03/M05 A3016 RMK A01 T10261053  RH  082%=      5-min Rain = 0
KSP2 191131Z 32013KT M03/M05 A3016 RMK A01 T10261053  RH  082%=      5-min Rain = 0
KSP2 191132Z 32013KT M03/M05 A3016 RMK A01 T10261053  RH  082%=      5-min Rain = 0
KSP2 191133Z 32014KT M03/M05 A3016 RMK A01 T10261052  RH  082%=      5-min Rain = 0
KSP2 191134Z 32014KT M03/M05 A3016 RMK A01 T10261053  RH  082%=      5-min Rain = 0
KSP2 191135Z 32013KT M03/M05 A3016 RMK A01 T10261053  RH  082%=      5-min Rain = 0
KSP2 191136Z 31014KT M03/M05 A3015 RMK A01 T10261053  RH  082%=      5-min Rain = 0
KSP2 191137Z 32013KT M03/M05 A3016 RMK A01 T10271053  RH  082%=      5-min Rain = 0
KSP2 191138Z 31015KT M03/M05 A3016 RMK A01 T10271053  RH  082%=      5-min Rain = 0
KSP2 191139Z 31013KT M03/M05 A3016 RMK A01 T10271053  RH  083%=      5-min Rain = 0
KSP2 191140Z 31013KT M03/M05 A3016 RMK A01 T10271053  RH  083%=      5-min Rain = 0
KSP2 191141Z 31013KT M03/M05 A3016 RMK A01 T10281053  RH  083%=      5-min Rain = 0
KSP2 191142Z 31012KT M03/M05 A3016 RMK A01 T10281053  RH  083%=      5-min Rain = 0
KSP2 191143Z 32012KT M03/M05 A3016 RMK A01 T10291053  RH  083%=      5-min Rain = 0
KSP2 191144Z 31012KT M03/M05 A3016 RMK A01 T10291054  RH  083%=      5-min Rain = 0
KSP2 191145Z 31014KT M03/M05 A3016 RMK A01 T10291054  RH  083%=      5-min Rain = 0
KSP2 191146Z 31012KT M03/M05 A3016 RMK A01 T10291053  RH  084%=      5-min Rain = 0
KSP2 191147Z 31013KT M03/M05 A3016 RMK A01 T10291053  RH  083%=      5-min Rain = 0
KSP2 191148Z 31013KT M03/M05 A3016 RMK A01 T10291053  RH  083%=      5-min Rain = 0
KSP2 191149Z 31011KT M03/M05 A3016 RMK A01 T10291053  RH  084%=      5-min Rain = 0
KSP2 191150Z 32012KT M03/M05 A3016 RMK A01 T10301054  RH  084%=      5-min Rain = 0
KSP2 191151Z 31011KT M03/M05 A3016 RMK A01 T10301054  RH  084%=      5-min Rain = 0
KSP2 191152Z 31012KT M03/M05 A3016 RMK A01 T10311054  RH  084%=      5-min Rain = 0
KSP2 191153Z 32013KT M03/M05 A3016 RMK A01 T10311054  RH  084%=      5-min Rain = 0
KSP2 191154Z 32012KT M03/M05 A3017 RMK A01 T10301053  RH  084%=      5-min Rain = 0
KSP2 191155Z 32013KT M03/M05 A3017 RMK A01 T10291054  RH  083%=      5-min Rain = 0
KSP2 191156Z 32012KT M03/M05 A3017 RMK A01 T10291053  RH  083%=      5-min Rain = 0
KSP2 191157Z 32013KT M03/M05 A3017 RMK A01 T10291054  RH  083%=      5-min Rain = 0
KSP2 191158Z 32013KT M03/M05 A3017 RMK A01 T10291054  RH  083%=      5-min Rain = 0
KSP2 191159Z 32012KT M03/M05 A3017 RMK A01 T10291054  RH  083%=      5-min Rain = 0
KSP2 191200Z 32012KT M03/M05 A3017 RMK A01 T10291054  RH  083%=      5-min Rain = 0
KSP2 191201Z 32011KT M03/M05 A3017 RMK A01 T10291054  RH  083%=      5-min Rain = 0
KSP2 191202Z 32011KT M03/M05 A3017 RMK A01 T10291054  RH  083%=      5-min Rain = 0
KSP2 191203Z 32013KT M03/M05 A3017 RMK A01 T10301054  RH  083%=      5-min Rain = 0
KSP2 191204Z 32011KT M03/M05 A3017 RMK A01 T10301054  RH  083%=      5-min Rain = 0
KSP2 191205Z 32011KT M03/M05 A3017 RMK A01 T10301054  RH  083%=      5-min Rain = 0
KSP2 191206Z 32011KT M03/M06 A3017 RMK A01 T10311055  RH  083%=      5-min Rain = 0
KSP2 191207Z 32010KT M03/M06 A3017 RMK A01 T10311055  RH  084%=      5-min Rain = 0
KSP2 191208Z 32010KT M03/M06 A3017 RMK A01 T10311055  RH  084%=      5-min Rain = 0
KSP2 191209Z 32011KT M03/M05 A3017 RMK A01 T10311054  RH  084%=      5-min Rain = 0
KSP2 191210Z 31010KT M03/M06 A3017 RMK A01 T10311055  RH  084%=      5-min Rain = 0
KSP2 191211Z 32010KT M03/M06 A3017 RMK A01 T10311055  RH  084%=      5-min Rain = 0
KSP2 191212Z 32010KT M03/M06 A3017 RMK A01 T10321055  RH  084%=      5-min Rain = 0
KSP2 191213Z 32011KT M03/M06 A3017 RMK A01 T10321055  RH  084%=      5-min Rain = 0
KSP2 191214Z 32011KT M03/M06 A3017 RMK A01 T10321055  RH  084%=      5-min Rain = 0
KSP2 191215Z 32011KT M03/M05 A3017 RMK A01 T10311054  RH  084%=      5-min Rain = 0
KSP2 191216Z 32012KT M03/M06 A3017 RMK A01 T10321055  RH  084%=      5-min Rain = 0
KSP2 191217Z 32012KT M03/M05 A3017 RMK A01 T10311054  RH  084%=      5-min Rain = 0
KSP2 191218Z 32009KT M03/M05 A3017 RMK A01 T10311054  RH  084%=      5-min Rain = 0
KSP2 191219Z 32010KT M03/M05 A3017 RMK A01 T10311054  RH  084%=      5-min Rain = 0
KSP2 191220Z 32011KT M03/M06 A3017 RMK A01 T10321055  RH  084%=      5-min Rain = 0
KSP2 191221Z 31012KT M03/M05 A3017 RMK A01 T10321054  RH  085%=      5-min Rain = 0
KSP2 191222Z 32009KT M03/M05 A3017 RMK A01 T10321054  RH  085%=      5-min Rain = 0
KSP2 191223Z 32010KT M03/M05 A3017 RMK A01 T10311054  RH  085%=      5-min Rain = 0
KSP2 191224Z 32009KT M03/M05 A3018 RMK A01 T10321054  RH  085%=      5-min Rain = 0
KSP2 191225Z 32009KT M03/M05 A3018 RMK A01 T10321054  RH  085%=      5-min Rain = 0
KSP2 191226Z 32010KT M03/M05 A3018 RMK A01 T10321054  RH  085%=      5-min Rain = 0
KSP2 191227Z 32011KT M03/M05 A3018 RMK A01 T10321054  RH  085%=      5-min Rain = 0
KSP2 191228Z 32010KT M03/M05 A3018 RMK A01 T10321053  RH  085%=      5-min Rain = 0
KSP2 191229Z 32010KT M03/M05 A3018 RMK A01 T10311053  RH  085%=      5-min Rain = 0
KSP2 191230Z 32010KT M03/M05 A3018 RMK A01 T10311053  RH  085%=      5-min Rain = 0
KSP2 191231Z 32011KT M03/M05 A3018 RMK A01 T10311053  RH  085%=      5-min Rain = 0
KSP2 191232Z 32009KT M03/M05 A3018 RMK A01 T10311053  RH  085%=      5-min Rain = 0
KSP2 191233Z 32008KT M03/M05 A3018 RMK A01 T10311053  RH  085%=      5-min Rain = 0
KSP2 191234Z 33008KT M03/M05 A3018 RMK A01 T10311054  RH  085%=      5-min Rain = 0
KSP2 191235Z 33008KT M03/M05 A3018 RMK A01 T10321054  RH  085%=      5-min Rain = 0
KSP2 191236Z 33008KT M03/M05 A3018 RMK A01 T10321054  RH  085%=      5-min Rain = 0
KSP2 191237Z 33007KT M03/M05 A3018 RMK A01 T10321054  RH  085%=      5-min Rain = 0
KSP2 191238Z 33007KT M03/M05 A3018 RMK A01 T10321054  RH  085%=      5-min Rain = 0
KSP2 191239Z 33008KT M03/M05 A3018 RMK A01 T10321053  RH  085%=      5-min Rain = 0
KSP2 191240Z 32007KT M03/M05 A3018 RMK A01 T10321053  RH  085%=      5-min Rain = 0
KSP2 191241Z 33008KT M03/M05 A3018 RMK A01 T10321054  RH  085%=      5-min Rain = 0
KSP2 191242Z 33007KT M03/M05 A3018 RMK A01 T10321054  RH  085%=      5-min Rain = 0
KSP2 191243Z 33007KT M03/M05 A3018 RMK A01 T10321054  RH  085%=      5-min Rain = 0
KSP2 191244Z 33006KT M03/M05 A3018 RMK A01 T10311053  RH  085%=      5-min Rain = 0
KSP2 191245Z 33007KT M03/M05 A3018 RMK A01 T10311053  RH  085%=      5-min Rain = 0
KSP2 191246Z 33007KT M03/M05 A3019 RMK A01 T10311053  RH  085%=      5-min Rain = 0
KSP2 191247Z 33005KT M03/M05 A3019 RMK A01 T10311054  RH  085%=      5-min Rain = 0
KSP2 191248Z 32007KT M03/M05 A3019 RMK A01 T10321054  RH  085%=      5-min Rain = 0
KSP2 191249Z 33007KT M03/M05 A3019 RMK A01 T10321054  RH  085%=      5-min Rain = 0
KSP2 191250Z 33007KT M03/M05 A3019 RMK A01 T10321054  RH  085%=      5-min Rain = 0
KSP2 191251Z 32007KT M03/M05 A3019 RMK A01 T10321054  RH  085%=      5-min Rain = 0
KSP2 191252Z 32006KT M03/M05 A3019 RMK A01 T10321054  RH  085%=      5-min Rain = 0
KSP2 191253Z 32005KT M03/M05 A302 RMK A01 T10321054  RH  085%=      5-min Rain = 0
KSP2 191254Z 32006KT M03/M05 A302 RMK A01 T10331054  RH  085%=      5-min Rain = 0
KSP2 191255Z 32007KT M03/M05 A302 RMK A01 T10331054  RH  085%=      5-min Rain = 0
KSP2 191256Z 33008KT M03/M05 A302 RMK A01 T10331054  RH  085%=      5-min Rain = 0
KSP2 191257Z 33009KT M03/M05 A302 RMK A01 T10321054  RH  085%=      5-min Rain = 0
KSP2 191258Z 33008KT M03/M05 A302 RMK A01 T10311052  RH  085%=      5-min Rain = 0
KSP2 191259Z 33008KT M03/M05 A302 RMK A01 T10301052  RH  085%=      5-min Rain = 0
KSP2 191300Z 33008KT M03/M05 A302 RMK A01 T10301053  RH  085%=      5-min Rain = 0
KSP2 191301Z 32011KT M03/M05 A302 RMK A01 T10301052  RH  085%=      5-min Rain = 0
KSP2 191302Z 33011KT M03/M05 A302 RMK A01 T10291051  RH  085%=      5-min Rain = 0
KSP2 191303Z 34009KT M03/M05 A302 RMK A01 T10281051  RH  084%=      5-min Rain = 0
KSP2 191304Z 33009KT M03/M05 A302 RMK A01 T10281051  RH  084%=      5-min Rain = 0
KSP2 191305Z 33010KT M03/M05 A302 RMK A01 T10281051  RH  084%=      5-min Rain = 0
KSP2 191306Z 33010KT M03/M05 A302 RMK A01 T10281051  RH  084%=      5-min Rain = 0
KSP2 191307Z 33011KT M03/M05 A302 RMK A01 T10281051  RH  084%=      5-min Rain = 0
KSP2 191308Z 33011KT M03/M05 A302 RMK A01 T10281051  RH  084%=      5-min Rain = 0
KSP2 191309Z 33009KT M03/M05 A302 RMK A01 T10281051  RH  084%=      5-min Rain = 0
KSP2 191310Z 33010KT M03/M05 A302 RMK A01 T10281051  RH  084%=      5-min Rain = 0
KSP2 191311Z 33012KT M03/M05 A302 RMK A01 T10281051  RH  084%=      5-min Rain = 0
KSP2 191312Z 33010KT M03/M05 A302 RMK A01 T10281050  RH  085%=      5-min Rain = 0
KSP2 191313Z 33010KT M03/M05 A302 RMK A01 T10281050  RH  084%=      5-min Rain = 0
KSP2 191314Z 33009KT M03/M05 A302 RMK A01 T10281051  RH  084%=      5-min Rain = 0
KSP2 191315Z 33009KT M03/M05 A302 RMK A01 T10281051  RH  084%=      5-min Rain = 0
KSP2 191316Z 33009KT M03/M05 A302 RMK A01 T10281051  RH  084%=      5-min Rain = 0
KSP2 191317Z 33009KT M03/M05 A302 RMK A01 T10291051  RH  085%=      5-min Rain = 0
KSP2 191318Z 32008KT M03/M05 A3021 RMK A01 T10291051  RH  085%=      5-min Rain = 0
KSP2 191319Z 33007KT M03/M05 A3021 RMK A01 T10291052  RH  085%=      5-min Rain = 0
KSP2 191320Z 33007KT M03/M05 A3021 RMK A01 T10301052  RH  085%=      5-min Rain = 0
KSP2 191321Z 33009KT M03/M05 A3021 RMK A01 T10311052  RH  085%=      5-min Rain = 0
KSP2 191322Z 33009KT M03/M05 A3021 RMK A01 T10311052  RH  085%=      5-min Rain = 0
KSP2 191323Z 33010KT M03/M05 A3021 RMK A01 T10311051  RH  086%=      5-min Rain = 0
KSP2 191324Z 32011KT M03/M05 A3021 RMK A01 T10301051  RH  085%=      5-min Rain = 0
KSP2 191325Z 33010KT M03/M05 A3021 RMK A01 T10291051  RH  085%=      5-min Rain = 0
KSP2 191326Z 33010KT M03/M05 A3021 RMK A01 T10291051  RH  085%=      5-min Rain = 0
KSP2 191327Z 33010KT M03/M05 A3021 RMK A01 T10291051  RH  085%=      5-min Rain = 0
KSP2 191328Z 33011KT M03/M05 A3021 RMK A01 T10291051  RH  085%=      5-min Rain = 0
KSP2 191329Z 33011KT M03/M05 A3021 RMK A01 T10291051  RH  085%=      5-min Rain = 0
KSP2 191330Z 33013KT M03/M05 A3021 RMK A01 T10291051  RH  085%=      5-min Rain = 0
KSP2 191331Z 33012KT M03/M05 A3021 RMK A01 T10291050  RH  085%=      5-min Rain = 0
KSP2 191332Z 32012KT M03/M05 A3021 RMK A01 T10281050  RH  085%=      5-min Rain = 0
KSP2 191333Z 33013KT M03/M05 A3021 RMK A01 T10281051  RH  085%=      5-min Rain = 0
KSP2 191334Z 33014KT M03/M05 A3021 RMK A01 T10281050  RH  085%=      5-min Rain = 0
KSP2 191335Z 33013KT M03/M05 A3021 RMK A01 T10271050  RH  084%=      5-min Rain = 0
KSP2 191336Z 33012KT M03/M05 A3021 RMK A01 T10271050  RH  084%=      5-min Rain = 0
KSP2 191337Z 33013KT M03/M05 A3021 RMK A01 T10281051  RH  084%=      5-min Rain = 0
KSP2 191338Z 32011KT M03/M05 A3021 RMK A01 T10281051  RH  084%=      5-min Rain = 0
KSP2 191339Z 32012KT M03/M05 A3021 RMK A01 T10281051  RH  085%=      5-min Rain = 0
KSP2 191340Z 32013KT M03/M05 A3022 RMK A01 T10281050  RH  085%=      5-min Rain = 0
KSP2 191341Z 32013KT M03/M05 A3022 RMK A01 T10281050  RH  085%=      5-min Rain = 0
KSP2 191342Z 32012KT M03/M05 A3022 RMK A01 T10291051  RH  085%=      5-min Rain = 0
KSP2 191343Z 33012KT M03/M05 A3022 RMK A01 T10281051  RH  085%=      5-min Rain = 0
KSP2 191344Z 33012KT M03/M05 A3022 RMK A01 T10281050  RH  085%=      5-min Rain = 0
KSP2 191345Z 33013KT M03/M05 A3022 RMK A01 T10281051  RH  085%=      5-min Rain = 0
KSP2 191346Z 33013KT M03/M05 A3022 RMK A01 T10281050  RH  085%=      5-min Rain = 0
KSP2 191347Z 33012KT M03/M05 A3022 RMK A01 T10281050  RH  085%=      5-min Rain = 0
KSP2 191348Z 33016KT M03/M05 A3022 RMK A01 T10281050  RH  085%=      5-min Rain = 0
KSP2 191349Z 32015KT M03/M05 A3022 RMK A01 T10271049  RH  085%=      5-min Rain = 0
KSP2 191350Z 33014KT M03/M05 A3022 RMK A01 T10261049  RH  084%=      5-min Rain = 0
KSP2 191351Z 33013KT M03/M05 A3022 RMK A01 T10261050  RH  084%=      5-min Rain = 0
KSP2 191352Z 33014KT M03/M05 A3022 RMK A01 T10271050  RH  084%=      5-min Rain = 0
KSP2 191353Z 33014KT M03/M05 A3022 RMK A01 T10261050  RH  084%=      5-min Rain = 0
KSP2 191354Z 33015KT M03/M05 A3022 RMK A01 T10261049  RH  084%=      5-min Rain = 0
KSP2 191355Z 33015KT M03/M05 A3022 RMK A01 T10251049  RH  084%=      5-min Rain = 0
KSP2 191356Z 33016KT M02/M05 A3022 RMK A01 T10241049  RH  083%=      5-min Rain = 0
KSP2 191357Z 33013KT M02/M05 A3022 RMK A01 T10241049  RH  083%=      5-min Rain = 0
KSP2 191358Z 33011KT M02/M05 A3022 RMK A01 T10241049  RH  083%=      5-min Rain = 0
KSP2 191359Z 33012KT M03/M05 A3023 RMK A01 T10251050  RH  083%=      5-min Rain = 0
KSP2 191400Z 33014KT M03/M05 A3023 RMK A01 T10251050  RH  083%=      5-min Rain = 0
KSP2 191401Z 33013KT M03/M05 A3023 RMK A01 T10251050  RH  083%=      5-min Rain = 0
KSP2 191402Z 33013KT M03/M05 A3023 RMK A01 T10251050  RH  083%=      5-min Rain = 0
KSP2 191403Z 33014KT M02/M05 A3023 RMK A01 T10241049  RH  083%=      5-min Rain = 0
KSP2 191404Z 34012KT M03/M05 A3023 RMK A01 T10251050  RH  083%=      5-min Rain = 0
KSP2 191405Z 33012KT M03/M05 A3023 RMK A01 T10251050  RH  083%=      5-min Rain = 0
KSP2 191406Z 34010KT M03/M05 A3023 RMK A01 T10251050  RH  083%=      5-min Rain = 0
KSP2 191407Z 33010KT M03/M05 A3023 RMK A01 T10261050  RH  083%=      5-min Rain = 0
KSP2 191408Z 34011KT M03/M05 A3023 RMK A01 T10261050  RH  083%=      5-min Rain = 0
KSP2 191409Z 34012KT M03/M05 A3023 RMK A01 T10251050  RH  083%=      5-min Rain = 0
KSP2 191410Z 33012KT M02/M05 A3023 RMK A01 T10241049  RH  083%=      5-min Rain = 0
KSP2 191411Z 34011KT M02/M05 A3023 RMK A01 T10241050  RH  083%=      5-min Rain = 0
KSP2 191412Z 34011KT M02/M05 A3023 RMK A01 T10241050  RH  083%=      5-min Rain = 0
KSP2 191413Z 34011KT M02/M05 A3023 RMK A01 T10241050  RH  082%=      5-min Rain = 0
KSP2 191414Z 34011KT M02/M05 A3023 RMK A01 T10241050  RH  082%=      5-min Rain = 0
KSP2 191415Z 33013KT M02/M05 A3024 RMK A01 T10231050  RH  082%=      5-min Rain = 0
KSP2 191416Z 33010KT M02/M05 A3024 RMK A01 T10231050  RH  082%=      5-min Rain = 0
KSP2 191417Z 33011KT M02/M05 A3024 RMK A01 T10231050  RH  082%=      5-min Rain = 0
KSP2 191418Z 34011KT M02/M05 A3024 RMK A01 T10231050  RH  082%=      5-min Rain = 0
KSP2 191419Z 33011KT M02/M05 A3024 RMK A01 T10231050  RH  082%=      5-min Rain = 0
KSP2 191420Z 33011KT M02/M05 A3024 RMK A01 T10221050  RH  082%=      5-min Rain = 0
KSP2 191421Z 33011KT M02/M05 A3024 RMK A01 T10221050  RH  081%=      5-min Rain = 0
KSP2 191422Z 33010KT M02/M05 A3024 RMK A01 T10221049  RH  081%=      5-min Rain = 0
KSP2 191423Z 33010KT M02/M05 A3025 RMK A01 T10221049  RH  081%=      5-min Rain = 0
KSP2 191424Z 33011KT M02/M05 A3025 RMK A01 T10221049  RH  081%=      5-min Rain = 0
KSP2 191425Z 33012KT M02/M05 A3025 RMK A01 T10211049  RH  081%=      5-min Rain = 0
KSP2 191426Z 33011KT M02/M05 A3025 RMK A01 T10201049  RH  081%=      5-min Rain = 0
KSP2 191427Z 32009KT M02/M05 A3025 RMK A01 T10201049  RH  081%=      5-min Rain = 0
KSP2 191428Z 33013KT M02/M05 A3025 RMK A01 T10201049  RH  081%=      5-min Rain = 0
KSP2 191429Z 33012KT M02/M05 A3025 RMK A01 T10191048  RH  081%=      5-min Rain = 0
KSP2 191430Z 33012G17KT M02/M05 A3025 RMK A01 T10191048  RH  080%=      5-min Rain = 0
KSP2 191431Z 34011KT M02/M05 A3025 RMK A01 T10181048  RH  080%=      5-min Rain = 0
KSP2 191432Z 34012KT M02/M05 A3025 RMK A01 T10181049  RH  080%=      5-min Rain = 0
KSP2 191433Z 33011KT M02/M05 A3025 RMK A01 T10181049  RH  080%=      5-min Rain = 0
KSP2 191434Z 33013KT M02/M05 A3025 RMK A01 T10171048  RH  079%=      5-min Rain = 0
KSP2 191435Z 33011KT M02/M05 A3025 RMK A01 T10171048  RH  079%=      5-min Rain = 0
KSP2 191436Z 33013KT M02/M05 A3025 RMK A01 T10161048  RH  079%=      5-min Rain = 0
KSP2 191437Z 33011KT M02/M05 A3025 RMK A01 T10161048  RH  079%=      5-min Rain = 0
KSP2 191438Z 33010KT M02/M05 A3025 RMK A01 T10161047  RH  079%=      5-min Rain = 0
KSP2 191439Z 33011KT M02/M05 A3026 RMK A01 T10161047  RH  079%=      5-min Rain = 0
KSP2 191440Z 34012KT M02/M05 A3026 RMK A01 T10151047  RH  079%=      5-min Rain = 0
KSP2 191441Z 33014KT M02/M05 A3026 RMK A01 T10151048  RH  079%=      5-min Rain = 0
KSP2 191442Z 34013KT M02/M05 A3026 RMK A01 T10151048  RH  078%=      5-min Rain = 0
KSP2 191443Z 34012KT M02/M05 A3026 RMK A01 T10151047  RH  078%=      5-min Rain = 0
KSP2 191444Z 33012KT M01/M05 A3026 RMK A01 T10141047  RH  078%=      5-min Rain = 0
KSP2 191445Z 34012KT M01/M05 A3026 RMK A01 T10141047  RH  078%=      5-min Rain = 0
KSP2 191446Z 33009KT M01/M05 A3026 RMK A01 T10141047  RH  078%=      5-min Rain = 0
KSP2 191447Z 34011KT M01/M05 A3026 RMK A01 T10141046  RH  079%=      5-min Rain = 0
KSP2 191448Z 33012KT M01/M05 A3026 RMK A01 T10131046  RH  078%=      5-min Rain = 0
KSP2 191449Z 34010KT M01/M05 A3026 RMK A01 T10131046  RH  078%=      5-min Rain = 0
KSP2 191450Z 33011KT M01/M05 A3026 RMK A01 T10121046  RH  078%=      5-min Rain = 0
KSP2 191451Z 34009KT M01/M05 A3026 RMK A01 T10121046  RH  078%=      5-min Rain = 0
KSP2 191452Z 34010KT M01/M05 A3026 RMK A01 T10121046  RH  078%=      5-min Rain = 0
KSP2 191453Z 34011KT M01/M05 A3026 RMK A01 T10121045  RH  078%=      5-min Rain = 0
KSP2 191454Z 33012KT M01/M05 A3026 RMK A01 T10121046  RH  078%=      5-min Rain = 0
KSP2 191455Z 34011G16KT M01/M05 A3026 RMK A01 T10121046  RH  078%=      5-min Rain = 0
KSP2 191456Z 33011KT M01/M05 A3026 RMK A01 T10121045  RH  078%=      5-min Rain = 0
KSP2 191457Z 33011KT M01/M04 A3027 RMK A01 T10111044  RH  078%=      5-min Rain = 0
KSP2 191458Z 34011KT M01/M04 A3027 RMK A01 T10111044  RH  078%=      5-min Rain = 0
KSP2 191459Z 33011KT M01/M04 A3027 RMK A01 T10101044  RH  078%=      5-min Rain = 0
KSP2 191500Z 34010KT M01/M04 A3027 RMK A01 T10101044  RH  078%=      5-min Rain = 0
KSP2 191501Z 33011KT M01/M04 A3027 RMK A01 T10101044  RH  078%=      5-min Rain = 0
KSP2 191502Z 34013KT M01/M04 A3027 RMK A01 T10091044  RH  078%=      5-min Rain = 0
KSP2 191503Z 33012KT M01/M04 A3027 RMK A01 T10091044  RH  077%=      5-min Rain = 0
KSP2 191504Z 33008KT M01/M04 A3027 RMK A01 T10091044  RH  077%=      5-min Rain = 0
KSP2 191505Z 34011KT M01/M04 A3027 RMK A01 T10081042  RH  078%=      5-min Rain = 0
KSP2 191506Z 33013KT M01/M04 A3027 RMK A01 T10071042  RH  077%=      5-min Rain = 0
KSP2 191507Z 34015KT M01/M04 A3027 RMK A01 T10071044  RH  076%=      5-min Rain = 0
KSP2 191508Z 33012KT M01/M04 A3027 RMK A01 T10071044  RH  076%=      5-min Rain = 0
KSP2 191509Z 33013KT M01/M04 A3027 RMK A01 T10061043  RH  076%=      5-min Rain = 0
KSP2 191510Z 33012KT M01/M04 A3027 RMK A01 T10061042  RH  076%=      5-min Rain = 0
KSP2 191511Z 34011KT M01/M04 A3027 RMK A01 T10051042  RH  076%=      5-min Rain = 0
KSP2 191512Z 34014G19KT M01/M04 A3027 RMK A01 T10051042  RH  076%=      5-min Rain = 0
KSP2 191513Z 34013G20KT M00/M04 A3027 RMK A01 T10041042  RH  076%=      5-min Rain = 0
KSP2 191514Z 33015KT M00/M04 A3027 RMK A01 T10041043  RH  075%=      5-min Rain = 0
KSP2 191515Z 33016KT M00/M04 A3027 RMK A01 T10041044  RH  074%=      5-min Rain = 0
KSP2 191516Z 33014KT M00/M04 A3027 RMK A01 T10041044  RH  075%=      5-min Rain = 0
KSP2 191517Z 34013KT M00/M04 A3027 RMK A01 T10031042  RH  075%=      5-min Rain = 0
KSP2 191518Z 34014KT M00/M04 A3027 RMK A01 T10031043  RH  075%=      5-min Rain = 0
KSP2 191519Z 33015KT M00/M04 A3028 RMK A01 T10031043  RH  074%=      5-min Rain = 0
KSP2 191520Z 33016KT M00/M04 A3028 RMK A01 T10031043  RH  074%=      5-min Rain = 0
KSP2 191521Z 35013KT M00/M04 A3028 RMK A01 T10021042  RH  074%=      5-min Rain = 0
KSP2 191522Z 34014KT M00/M04 A3028 RMK A01 T10011040  RH  075%=      5-min Rain = 0
KSP2 191523Z 33011KT M00/M04 A3028 RMK A01 T10011041  RH  074%=      5-min Rain = 0
KSP2 191524Z 33012KT M00/M04 A3028 RMK A01 T10011040  RH  075%=      5-min Rain = 0
KSP2 191525Z 33011KT 00/04 A3028 RMK A01 T00-00-40  RH  075%=      5-min Rain = 0
KSP2 191526Z 33010KT 00/04 A3028 RMK A01 T00000-39  RH  075%=      5-min Rain = 0
KSP2 191527Z 33012KT 00/M04 A3028 RMK A01 T00011038  RH  075%=      5-min Rain = 0
KSP2 191528Z 34011KT 00/M04 A3028 RMK A01 T00011040  RH  074%=      5-min Rain = 0
KSP2 191529Z 33010KT 00/M04 A3028 RMK A01 T00011038  RH  075%=      5-min Rain = 0
KSP2 191530Z 34014KT 00/M04 A3028 RMK A01 T00031038  RH  074%=      5-min Rain = 0
KSP2 191531Z 34013KT 00/M04 A3028 RMK A01 T00031040  RH  073%=      5-min Rain = 0
KSP2 191532Z 34010KT 00/M04 A3029 RMK A01 T00021038  RH  074%=      5-min Rain = 0
KSP2 191533Z 33010KT 00/M04 A3028 RMK A01 T00041036  RH  075%=      5-min Rain = 0
KSP2 191534Z 34012KT 01/M04 A3029 RMK A01 T00051037  RH  074%=      5-min Rain = 0
KSP2 191535Z 32012KT 00/M04 A3029 RMK A01 T00041038  RH  073%=      5-min Rain = 0
KSP2 191536Z 34013KT 01/M04 A3029 RMK A01 T00051039  RH  073%=      5-min Rain = 0
KSP2 191537Z 33012KT 00/M04 A3029 RMK A01 T00041040  RH  072%=      5-min Rain = 0
KSP2 191538Z 33013KT 00/M04 A3029 RMK A01 T00041039  RH  073%=      5-min Rain = 0
KSP2 191539Z 34016KT 00/M04 A3029 RMK A01 T00041039  RH  073%=      5-min Rain = 0
KSP2 191540Z 34014KT 00/M04 A3029 RMK A01 T00041039  RH  073%=      5-min Rain = 0
KSP2 191541Z 33015KT 01/M04 A3029 RMK A01 T00051038  RH  073%=      5-min Rain = 0
KSP2 191542Z 34017KT 01/M04 A3029 RMK A01 T00051039  RH  072%=      5-min Rain = 0
KSP2 191543Z 34012KT 01/M04 A3029 RMK A01 T00051038  RH  073%=      5-min Rain = 0
KSP2 191544Z 34010KT 01/M04 A3029 RMK A01 T00061036  RH  073%=      5-min Rain = 0
KSP2 191545Z 33014KT 01/M04 A3029 RMK A01 T00071035  RH  073%=      5-min Rain = 0
KSP2 191546Z 33015KT 01/M04 A3029 RMK A01 T00071037  RH  072%=      5-min Rain = 0
KSP2 191547Z 34015KT 01/M04 A3029 RMK A01 T00071038  RH  072%=      5-min Rain = 0
KSP2 191548Z 34014KT 01/M04 A3029 RMK A01 T00071038  RH  072%=      5-min Rain = 0
KSP2 191549Z 33015KT 01/M04 A3029 RMK A01 T00071038  RH  072%=      5-min Rain = 0
KSP2 191550Z 34015KT 01/M04 A3029 RMK A01 T00071037  RH  072%=      5-min Rain = 0
KSP2 191551Z 34016KT 01/M04 A3029 RMK A01 T00071039  RH  071%=      5-min Rain = 0
KSP2 191552Z 33016KT 01/M04 A3029 RMK A01 T00071039  RH  071%=      5-min Rain = 0
KSP2 191553Z 33016KT 01/M04 A3029 RMK A01 T00071038  RH  072%=      5-min Rain = 0
KSP2 191554Z 33016KT 01/M04 A3029 RMK A01 T00071038  RH  072%=      5-min Rain = 0
KSP2 191555Z 34014KT 01/M04 A3029 RMK A01 T00071038  RH  072%=      5-min Rain = 0
KSP2 191556Z 35014KT 01/M04 A3029 RMK A01 T00081036  RH  073%=      5-min Rain = 0
KSP2 191557Z 35014KT 01/M04 A3029 RMK A01 T00091036  RH  072%=      5-min Rain = 0
KSP2 191558Z 35014KT 01/M04 A3029 RMK A01 T00091035  RH  073%=      5-min Rain = 0
KSP2 191559Z 35015KT 01/M03 A3029 RMK A01 T00101034  RH  072%=      5-min Rain = 0
KSP2 191600Z 34014KT 01/M04 A3029 RMK A01 T00091035  RH  072%=      5-min Rain = 0
KSP2 191601Z 35016KT 01/M04 A3029 RMK A01 T00091037  RH  071%=      5-min Rain = 0
KSP2 191602Z 35016KT 01/M04 A3029 RMK A01 T00091037  RH  071%=      5-min Rain = 0
KSP2 191603Z 34017KT 01/M04 A3029 RMK A01 T00091036  RH  072%=      5-min Rain = 0
KSP2 191604Z 34017G23KT 01/M04 A3029 RMK A01 T00091037  RH  071%=      5-min Rain = 0
KSP2 191605Z 34017G22KT 01/M04 A3029 RMK A01 T00101036  RH  071%=      5-min Rain = 0
KSP2 191606Z 35015KT 01/M04 A3029 RMK A01 T00111036  RH  071%=      5-min Rain = 0
KSP2 191607Z 34017KT 01/M04 A3029 RMK A01 T00111036  RH  071%=      5-min Rain = 0
KSP2 191608Z 34017KT 01/M04 A3029 RMK A01 T00111036  RH  071%=      5-min Rain = 0
KSP2 191609Z 34017KT 01/M04 A3029 RMK A01 T00111037  RH  071%=      5-min Rain = 0
KSP2 191610Z 33017KT 01/M04 A3029 RMK A01 T00111036  RH  071%=      5-min Rain = 0
KSP2 191611Z 35014G19KT 01/M04 A3029 RMK A01 T00121035  RH  071%=      5-min Rain = 0
KSP2 191612Z 34013G20KT 01/M03 A3029 RMK A01 T00131031  RH  072%=      5-min Rain = 0
KSP2 191613Z 34019KT 01/M03 A3029 RMK A01 T00131034  RH  071%=      5-min Rain = 0
KSP2 191614Z 34017KT 01/M04 A3029 RMK A01 T00131036  RH  070%=      5-min Rain = 0
KSP2 191615Z 34019KT 01/M04 A3029 RMK A01 T00121036  RH  070%=      5-min Rain = 0
KSP2 191616Z 34019G24KT 01/M04 A3029 RMK A01 T00121036  RH  071%=      5-min Rain = 0
KSP2 191617Z 35018KT 01/M04 A3029 RMK A01 T00131035  RH  071%=      5-min Rain = 0
KSP2 191618Z 34017KT 01/M04 A3029 RMK A01 T00131036  RH  070%=      5-min Rain = 0
KSP2 191619Z 34017KT 01/M04 A303 RMK A01 T00131035  RH  070%=      5-min Rain = 0
KSP2 191620Z 33018G23KT 01/M04 A303 RMK A01 T00131035  RH  070%=      5-min Rain = 0
KSP2 191621Z 34018KT 01/M04 A303 RMK A01 T00141035  RH  070%=      5-min Rain = 0
KSP2 191622Z 33017KT 01/M04 A303 RMK A01 T00141035  RH  070%=      5-min Rain = 0
KSP2 191623Z 34014G20KT 01/M04 A303 RMK A01 T00131036  RH  070%=      5-min Rain = 0
KSP2 191624Z 34018KT 02/M03 A303 RMK A01 T00151033  RH  071%=      5-min Rain = 0
KSP2 191625Z 34016KT 02/M03 A303 RMK A01 T00151033  RH  070%=      5-min Rain = 0
KSP2 191626Z 34017G22KT 02/M03 A303 RMK A01 T00151032  RH  071%=      5-min Rain = 0
KSP2 191627Z 34016KT 02/M03 A303 RMK A01 T00161033  RH  070%=      5-min Rain = 0
KSP2 191628Z 35015KT 02/M03 A303 RMK A01 T00161032  RH  070%=      5-min Rain = 0
KSP2 191629Z 34015G21KT 02/M03 A303 RMK A01 T00161032  RH  070%=      5-min Rain = 0
KSP2 191630Z 34014KT 02/M03 A303 RMK A01 T00161033  RH  070%=      5-min Rain = 0
KSP2 191631Z 35015KT 02/M03 A303 RMK A01 T00171032  RH  070%=      5-min Rain = 0
KSP2 191632Z 34017KT 02/M03 A303 RMK A01 T00171031  RH  070%=      5-min Rain = 0
KSP2 191633Z 34016KT 02/M03 A303 RMK A01 T00181032  RH  070%=      5-min Rain = 0
KSP2 191634Z 34017KT 02/M03 A303 RMK A01 T00181032  RH  069%=      5-min Rain = 0
KSP2 191635Z 35018KT 02/M03 A303 RMK A01 T00181033  RH  069%=      5-min Rain = 0
KSP2 191636Z 35018KT 02/M03 A303 RMK A01 T00171034  RH  069%=      5-min Rain = 0
KSP2 191637Z 35017KT 02/M03 A303 RMK A01 T00161033  RH  070%=      5-min Rain = 0
KSP2 191638Z 35018KT 02/M03 A303 RMK A01 T00171033  RH  070%=      5-min Rain = 0
KSP2 191639Z 35015G20KT 02/M03 A303 RMK A01 T00161034  RH  069%=      5-min Rain = 0
KSP2 191640Z 35012KT 02/M03 A303 RMK A01 T00181029  RH  071%=      5-min Rain = 0
KSP2 191641Z 36017KT 02/M03 A303 RMK A01 T00201029  RH  070%=      5-min Rain = 0
KSP2 191642Z 36018KT 02/M03 A303 RMK A01 T00201032  RH  068%=      5-min Rain = 0
KSP2 191643Z 36018KT 02/M03 A303 RMK A01 T00181034  RH  068%=      5-min Rain = 0
KSP2 191644Z 35017KT 02/M03 A303 RMK A01 T00181033  RH  069%=      5-min Rain = 0
KSP2 191645Z 35015KT 02/M03 A303 RMK A01 T00181033  RH  069%=      5-min Rain = 0
KSP2 191646Z 35017KT 02/M03 A303 RMK A01 T00191031  RH  070%=      5-min Rain = 0
KSP2 191647Z 35018KT 02/M03 A3031 RMK A01 T00201030  RH  069%=      5-min Rain = 0
KSP2 191648Z 35017KT 02/M03 A3031 RMK A01 T00211032  RH  068%=      5-min Rain = 0
KSP2 191649Z 35016G21KT 02/M03 A3031 RMK A01 T00211032  RH  068%=      5-min Rain = 0
KSP2 191650Z 34015KT 02/M03 A303 RMK A01 T00211029  RH  069%=      5-min Rain = 0
KSP2 191651Z 34015KT 02/M03 A3031 RMK A01 T00231028  RH  069%=      5-min Rain = 0
KSP2 191652Z 35016KT 02/M03 A303 RMK A01 T00241030  RH  068%=      5-min Rain = 0
KSP2 191653Z 35018KT 03/M03 A3031 RMK A01 T00251029  RH  068%=      5-min Rain = 0
KSP2 191654Z 35015KT 02/M03 A3031 RMK A01 T00221033  RH  067%=      5-min Rain = 0
KSP2 191655Z 34015KT 02/M03 A3031 RMK A01 T00221030  RH  068%=      5-min Rain = 0
KSP2 191656Z 35019KT 02/M03 A3031 RMK A01 T00241030  RH  068%=      5-min Rain = 0
KSP2 191657Z 35017KT 02/M03 A3031 RMK A01 T00241030  RH  067%=      5-min Rain = 0
KSP2 191658Z 35017G22KT 02/M03 A3031 RMK A01 T00241029  RH  068%=      5-min Rain = 0
KSP2 191659Z 36018KT 03/M03 A3031 RMK A01 T00251031  RH  067%=      5-min Rain = 0
KSP2 191700Z 35016G21KT 02/M03 A3031 RMK A01 T00241032  RH  067%=      5-min Rain = 0
KSP2 191701Z 34016KT 02/M03 A3031 RMK A01 T00241030  RH  067%=      5-min Rain = 0
KSP2 191702Z 34014KT 03/M03 A3031 RMK A01 T00251030  RH  067%=      5-min Rain = 0
KSP2 191703Z 34016KT 03/M03 A3031 RMK A01 T00271027  RH  067%=      5-min Rain = 0
KSP2 191704Z 33015KT 03/M03 A3031 RMK A01 T00281028  RH  066%=      5-min Rain = 0
KSP2 191705Z 35017KT 03/M03 A3031 RMK A01 T00301026  RH  067%=      5-min Rain = 0
KSP2 191706Z 34018KT 03/M03 A3031 RMK A01 T00301030  RH  065%=      5-min Rain = 0
KSP2 191707Z 34015KT 03/M03 A3031 RMK A01 T00281031  RH  065%=      5-min Rain = 0
KSP2 191708Z 34016KT 03/M03 A3031 RMK A01 T00281031  RH  066%=      5-min Rain = 0
KSP2 191709Z 34017KT 03/M03 A3031 RMK A01 T00281030  RH  066%=      5-min Rain = 0
KSP2 191710Z 35018KT 03/M03 A3031 RMK A01 T00281030  RH  066%=      5-min Rain = 0
KSP2 191711Z 34017KT 03/M03 A3031 RMK A01 T00281031  RH  065%=      5-min Rain = 0
KSP2 191712Z 34019KT 03/M03 A3031 RMK A01 T00271033  RH  065%=      5-min Rain = 0
KSP2 191713Z 34016KT 03/M03 A3031 RMK A01 T00261034  RH  064%=      5-min Rain = 0
KSP2 191714Z 34015KT 03/M03 A3031 RMK A01 T00261031  RH  066%=      5-min Rain = 0
KSP2 191715Z 35016KT 03/M03 A3032 RMK A01 T00271032  RH  065%=      5-min Rain = 0
KSP2 191716Z 34016KT 03/M04 A3032 RMK A01 T00261036  RH  064%=      5-min Rain = 0
KSP2 191717Z 35015KT 02/M04 A3032 RMK A01 T00241035  RH  065%=      5-min Rain = 0
KSP2 191718Z 34017KT 03/M03 A3031 RMK A01 T00261032  RH  066%=      5-min Rain = 0
KSP2 191719Z 35015G20KT 03/M03 A3031 RMK A01 T00271031  RH  065%=      5-min Rain = 0
KSP2 191720Z 36019KT 03/M03 A3031 RMK A01 T00281032  RH  064%=      5-min Rain = 0
KSP2 191721Z 36016KT 03/M04 A3032 RMK A01 T00261036  RH  064%=      5-min Rain = 0
KSP2 191722Z 36016KT 03/M03 A3032 RMK A01 T00271031  RH  066%=      5-min Rain = 0
KSP2 191723Z 00016KT 03/M03 A3031 RMK A01 T00271033  RH  065%=      5-min Rain = 0
KSP2 191724Z 00017KT 03/M03 A3031 RMK A01 T00271033  RH  065%=      5-min Rain = 0
KSP2 191725Z 00015KT 03/M03 A3031 RMK A01 T00281032  RH  065%=      5-min Rain = 0
KSP2 191726Z 35013KT 03/M03 A3031 RMK A01 T00291030  RH  065%=      5-min Rain = 0
KSP2 191727Z 34013KT 03/M03 A3031 RMK A01 T00321025  RH  066%=      5-min Rain = 0
KSP2 191728Z 34012KT 03/M03 A3031 RMK A01 T00341029  RH  063%=      5-min Rain = 0
KSP2 191729Z 34013G20KT 03/M03 A3031 RMK A01 T00331029  RH  064%=      5-min Rain = 0
KSP2 191730Z 34015G20KT 03/M03 A3031 RMK A01 T00331030  RH  063%=      5-min Rain = 0
KSP2 191731Z 34014KT 03/M03 A3031 RMK A01 T00341030  RH  063%=      5-min Rain = 0
KSP2 191732Z 34014G19KT 03/M03 A3031 RMK A01 T00331031  RH  063%=      5-min Rain = 0
KSP2 191733Z 35012KT 03/M03 A3031 RMK A01 T00341029  RH  064%=      5-min Rain = 0
KSP2 191734Z 34014G19KT 04/M03 A3031 RMK A01 T00351030  RH  063%=      5-min Rain = 0
KSP2 191735Z 35014KT 03/M03 A3031 RMK A01 T00341030  RH  063%=      5-min Rain = 0
KSP2 191736Z 36016KT 03/M03 A3031 RMK A01 T00341033  RH  062%=      5-min Rain = 0
KSP2 191737Z 36015KT 03/M03 A3031 RMK A01 T00321033  RH  062%=      5-min Rain = 0
KSP2 191738Z 34015KT 03/M03 A3031 RMK A01 T00321033  RH  063%=      5-min Rain = 0
KSP2 191739Z 34013KT 03/M03 A3031 RMK A01 T00311034  RH  062%=      5-min Rain = 0
KSP2 191740Z 35014KT 03/M03 A3031 RMK A01 T00321033  RH  062%=      5-min Rain = 0
KSP2 191741Z 35013KT 03/M03 A3031 RMK A01 T00321033  RH  062%=      5-min Rain = 0
KSP2 191742Z 33012KT 03/M03 A3031 RMK A01 T00331032  RH  062%=      5-min Rain = 0
KSP2 191743Z 33011KT 04/M03 A3031 RMK A01 T00351029  RH  063%=      5-min Rain = 0
KSP2 191744Z 35014KT 04/M03 A3031 RMK A01 T00391026  RH  063%=      5-min Rain = 0
KSP2 191745Z 35015KT 04/M03 A3031 RMK A01 T00391030  RH  061%=      5-min Rain = 0
KSP2 191746Z 35014KT 04/M04 A3031 RMK A01 T00351035  RH  060%=      5-min Rain = 0
KSP2 191747Z 35013KT 03/M03 A3031 RMK A01 T00341033  RH  062%=      5-min Rain = 0
KSP2 191748Z 33016KT 04/M03 A3031 RMK A01 T00361031  RH  061%=      5-min Rain = 0
KSP2 191749Z 34013KT 04/M03 A3031 RMK A01 T00361033  RH  060%=      5-min Rain = 0
KSP2 191750Z 34015KT 04/M03 A3031 RMK A01 T00361033  RH  061%=      5-min Rain = 0
KSP2 191751Z 35015KT 04/M03 A3031 RMK A01 T00361033  RH  061%=      5-min Rain = 0
KSP2 191752Z 35012KT 04/M03 A3031 RMK A01 T00361034  RH  060%=      5-min Rain = 0
KSP2 191753Z 34012KT 04/M03 A3031 RMK A01 T00371032  RH  061%=      5-min Rain = 0
KSP2 191754Z 35013G18KT 04/M03 A3031 RMK A01 T00411028  RH  061%=      5-min Rain = 0
KSP2 191755Z 35017KT 04/M03 A3031 RMK A01 T00421033  RH  058%=      5-min Rain = 0
KSP2 191756Z 00016KT 04/M04 A3031 RMK A01 T00381037  RH  058%=      5-min Rain = 0
KSP2 191757Z 35014KT 04/M04 A3031 RMK A01 T00371035  RH  059%=      5-min Rain = 0
KSP2 191758Z 34014KT 04/M03 A3031 RMK A01 T00381033  RH  060%=      5-min Rain = 0
KSP2 191759Z 34014KT 04/M03 A3031 RMK A01 T00401033  RH  059%=      5-min Rain = 0
KSP2 191800Z 36009KT 04/M03 A3031 RMK A01 T00411031  RH  060%=      5-min Rain = 0
KSP2 191801Z 35009KT 04/M03 A3031 RMK A01 T00431029  RH  060%=      5-min Rain = 0
KSP2 191802Z 00013G18KT 05/M03 A3031 RMK A01 T00451029  RH  059%=      5-min Rain = 0
KSP2 191803Z 36012KT 05/M03 A3031 RMK A01 T00451031  RH  058%=      5-min Rain = 0
KSP2 191804Z 35011KT 04/M03 A3031 RMK A01 T00441032  RH  058%=      5-min Rain = 0
KSP2 191805Z 35008G13KT 04/M03 A3031 RMK A01 T00421032  RH  058%=      5-min Rain = 0
KSP2 191806Z 33012KT 04/M03 A3031 RMK A01 T00431030  RH  059%=      5-min Rain = 0
KSP2 191807Z 34013KT 05/M03 A303 RMK A01 T00451030  RH  058%=      5-min Rain = 0
KSP2 191808Z 35014G21KT 05/M03 A303 RMK A01 T00471031  RH  057%=      5-min Rain = 0
KSP2 191809Z 35010KT 05/M03 A303 RMK A01 T00471032  RH  057%=      5-min Rain = 0
KSP2 191810Z 34010KT 05/M03 A303 RMK A01 T00471030  RH  058%=      5-min Rain = 0
KSP2 191811Z 33012KT 05/M03 A303 RMK A01 T00491029  RH  057%=      5-min Rain = 0
KSP2 191812Z 33011KT 05/M03 A303 RMK A01 T00481034  RH  055%=      5-min Rain = 0
KSP2 191813Z 35010KT 05/M03 A303 RMK A01 T00471032  RH  057%=      5-min Rain = 0
KSP2 191814Z 34008KT 05/M03 A303 RMK A01 T00481030  RH  057%=      5-min Rain = 0
KSP2 191815Z 34011KT 05/M03 A303 RMK A01 T00481030  RH  057%=      5-min Rain = 0
KSP2 191816Z 36014KT 05/M03 A303 RMK A01 T00501030  RH  056%=      5-min Rain = 0
KSP2 191817Z 35014KT 05/M03 A303 RMK A01 T00511032  RH  055%=      5-min Rain = 0
KSP2 191818Z 36013KT 05/M04 A303 RMK A01 T00491035  RH  055%=      5-min Rain = 0
KSP2 191819Z 35011KT 05/M03 A303 RMK A01 T00491032  RH  056%=      5-min Rain = 0
KSP2 191820Z 35012KT 05/M03 A303 RMK A01 T00521029  RH  056%=      5-min Rain = 0
KSP2 191821Z 33010KT 05/M03 A303 RMK A01 T00531031  RH  055%=      5-min Rain = 0
KSP2 191822Z 35013KT 05/M03 A303 RMK A01 T00541030  RH  055%=      5-min Rain = 0
KSP2 191823Z 35014KT 06/M03 A303 RMK A01 T00551032  RH  054%=      5-min Rain = 0
KSP2 191824Z 35011KT 05/M03 A303 RMK A01 T00541033  RH  054%=      5-min Rain = 0
KSP2 191825Z 35011KT 05/M03 A303 RMK A01 T00531032  RH  054%=      5-min Rain = 0
KSP2 191826Z 35010KT 05/M03 A303 RMK A01 T00541032  RH  054%=      5-min Rain = 0
KSP2 191827Z 35010KT 06/M03 A303 RMK A01 T00561031  RH  054%=      5-min Rain = 0
KSP2 191828Z 35012KT 06/M03 A303 RMK A01 T00571030  RH  054%=      5-min Rain = 0
KSP2 191829Z 00013KT 06/M03 A303 RMK A01 T00591032  RH  052%=      5-min Rain = 0
KSP2 191830Z 01010KT 06/M04 A303 RMK A01 T00551036  RH  052%=      5-min Rain = 0
KSP2 191831Z 35009KT 06/M03 A303 RMK A01 T00551032  RH  054%=      5-min Rain = 0
KSP2 191832Z 32014KT 06/M03 A303 RMK A01 T00571031  RH  053%=      5-min Rain = 0
KSP2 191833Z 34014KT 06/M04 A303 RMK A01 T00571035  RH  052%=      5-min Rain = 0
KSP2 191834Z 33012KT 06/M03 A303 RMK A01 T00561034  RH  052%=      5-min Rain = 0
KSP2 191835Z 35012KT 06/M03 A303 RMK A01 T00571034  RH  052%=      5-min Rain = 0
KSP2 191836Z 34013KT 06/M03 A303 RMK A01 T00571032  RH  053%=      5-min Rain = 0
KSP2 191837Z 34015KT 06/M03 A303 RMK A01 T00591032  RH  052%=      5-min Rain = 0
KSP2 191838Z 34014KT 06/M03 A3029 RMK A01 T00591033  RH  051%=      5-min Rain = 0
KSP2 191839Z 34010KT 06/M03 A3029 RMK A01 T00581034  RH  052%=      5-min Rain = 0
KSP2 191840Z 34013KT 06/M03 A3029 RMK A01 T00601031  RH  052%=      5-min Rain = 0
KSP2 191841Z 34014KT 06/M03 A3029 RMK A01 T00611034  RH  050%=      5-min Rain = 0
KSP2 191842Z 00013KT 06/M04 A3029 RMK A01 T00601035  RH  050%=      5-min Rain = 0
KSP2 191843Z 36015G20KT 06/M04 A3029 RMK A01 T00601036  RH  050%=      5-min Rain = 0
KSP2 191844Z 35011G19KT 06/M03 A3029 RMK A01 T00601034  RH  051%=      5-min Rain = 0
KSP2 191845Z 34016KT 06/M03 A3029 RMK A01 T00641031  RH  051%=      5-min Rain = 0
KSP2 191846Z 35016KT 07/M03 A3029 RMK A01 T00651031  RH  050%=      5-min Rain = 0
KSP2 191847Z 35015KT 07/M03 A3029 RMK A01 T00651032  RH  050%=      5-min Rain = 0
KSP2 191848Z 35018KT 07/M03 A3029 RMK A01 T00651033  RH  050%=      5-min Rain = 0
KSP2 191849Z 34015KT 06/M04 A3029 RMK A01 T00631035  RH  049%=      5-min Rain = 0
KSP2 191850Z 34010G15KT 06/M03 A3029 RMK A01 T00631034  RH  050%=      5-min Rain = 0
KSP2 191851Z 33014G19KT 07/M03 A3029 RMK A01 T00651031  RH  050%=      5-min Rain = 0
KSP2 191852Z 34013KT 07/M03 A3029 RMK A01 T00661029  RH  050%=      5-min Rain = 0
KSP2 191853Z 34010KT 07/M03 A3028 RMK A01 T00701028  RH  050%=      5-min Rain = 0
KSP2 191854Z 34013KT 07/M03 A3028 RMK A01 T00711031  RH  048%=      5-min Rain = 0
KSP2 191855Z 35015KT 07/M03 A3028 RMK A01 T00701032  RH  048%=      5-min Rain = 0
KSP2 191856Z 34012KT 07/M03 A3028 RMK A01 T00691033  RH  048%=      5-min Rain = 0
KSP2 191857Z 33012KT 07/M03 A3028 RMK A01 T00691032  RH  048%=      5-min Rain = 0
KSP2 191858Z 33013G18KT 07/M03 A3028 RMK A01 T00681034  RH  048%=      5-min Rain = 0
KSP2 191859Z 33016KT 07/M03 A3028 RMK A01 T00681033  RH  048%=      5-min Rain = 0
KSP2 191900Z 34012KT 07/M03 A3028 RMK A01 T00671034  RH  048%=      5-min Rain = 0
KSP2 191901Z 35012G17KT 07/M03 A3028 RMK A01 T00681032  RH  049%=      5-min Rain = 0
KSP2 191902Z 35013KT 07/M03 A3028 RMK A01 T00691034  RH  048%=      5-min Rain = 0
KSP2 191903Z 34014KT 07/M03 A3028 RMK A01 T00681032  RH  049%=      5-min Rain = 0
KSP2 191904Z 33014KT 07/M04 A3028 RMK A01 T00681035  RH  048%=      5-min Rain = 0
KSP2 191905Z 34014KT 07/M03 A3028 RMK A01 T00681032  RH  049%=      5-min Rain = 0
KSP2 191906Z 34011KT 07/M03 A3028 RMK A01 T00711030  RH  049%=      5-min Rain = 0
KSP2 191907Z 34012KT 07/M03 A3028 RMK A01 T00741030  RH  048%=      5-min Rain = 0
KSP2 191908Z 33015G20KT 07/M03 A3028 RMK A01 T00741032  RH  047%=      5-min Rain = 0
KSP2 191909Z 33013KT 07/M03 A3028 RMK A01 T00711034  RH  047%=      5-min Rain = 0
KSP2 191910Z 33015KT 07/M03 A3028 RMK A01 T00711033  RH  048%=      5-min Rain = 0
KSP2 191911Z 33014KT 07/M04 A3028 RMK A01 T00691039  RH  046%=      5-min Rain = 0
KSP2 191912Z 33015KT 07/M04 A3028 RMK A01 T00661038  RH  047%=      5-min Rain = 0
KSP2 191913Z 34015KT 07/M04 A3028 RMK A01 T00671037  RH  047%=      5-min Rain = 0
KSP2 191914Z 34013KT 07/M04 A3028 RMK A01 T00681035  RH  048%=      5-min Rain = 0
KSP2 191915Z 33014KT 07/M04 A3028 RMK A01 T00691036  RH  047%=      5-min Rain = 0
KSP2 191916Z 33013KT 07/M04 A3028 RMK A01 T00681037  RH  047%=      5-min Rain = 0
KSP2 191917Z 32011KT 07/M03 A3028 RMK A01 T00681034  RH  048%=      5-min Rain = 0
KSP2 191918Z 33011KT 07/M03 A3027 RMK A01 T00701034  RH  047%=      5-min Rain = 0
KSP2 191919Z 34012KT 07/M03 A3027 RMK A01 T00701033  RH  048%=      5-min Rain = 0
KSP2 191920Z 35014KT 07/M03 A3027 RMK A01 T00721033  RH  047%=      5-min Rain = 0
KSP2 191921Z 35012KT 07/M04 A3027 RMK A01 T00711036  RH  047%=      5-min Rain = 0
KSP2 191922Z 34011KT 07/M03 A3027 RMK A01 T00701034  RH  048%=      5-min Rain = 0
KSP2 191923Z 35013G18KT 07/M03 A3027 RMK A01 T00711033  RH  048%=      5-min Rain = 0
KSP2 191924Z 34015KT 07/M03 A3027 RMK A01 T00721034  RH  047%=      5-min Rain = 0
KSP2 191925Z 34012KT 07/M04 A3027 RMK A01 T00711035  RH  047%=      5-min Rain = 0
KSP2 191926Z 33013KT 07/M03 A3027 RMK A01 T00711034  RH  047%=      5-min Rain = 0
KSP2 191927Z 33013KT 07/M04 A3027 RMK A01 T00721036  RH  046%=      5-min Rain = 0
KSP2 191928Z 33013KT 07/M04 A3027 RMK A01 T00701037  RH  046%=      5-min Rain = 0
KSP2 191929Z 33014KT 07/M04 A3027 RMK A01 T00711036  RH  047%=      5-min Rain = 0
KSP2 191930Z 33015G21KT 07/M03 A3027 RMK A01 T00741033  RH  046%=      5-min Rain = 0
KSP2 191931Z 33015KT 07/M04 A3027 RMK A01 T00741038  RH  045%=      5-min Rain = 0
KSP2 191932Z 34012KT 07/M04 A3027 RMK A01 T00691041  RH  046%=      5-min Rain = 0
KSP2 191933Z 34011KT 07/M04 A3027 RMK A01 T00681038  RH  047%=      5-min Rain = 0
KSP2 191934Z 34011KT 07/M04 A3027 RMK A01 T00691037  RH  047%=      5-min Rain = 0
KSP2 191935Z 34012G19KT 07/M04 A3026 RMK A01 T00711035  RH  047%=      5-min Rain = 0
KSP2 191936Z 33017KT 07/M04 A3026 RMK A01 T00721036  RH  046%=      5-min Rain = 0
KSP2 191937Z 33016KT 07/M04 A3026 RMK A01 T00731037  RH  045%=      5-min Rain = 0
KSP2 191938Z 33013KT 07/M04 A3026 RMK A01 T00701042  RH  045%=      5-min Rain = 0
KSP2 191939Z 33016KT 07/M04 A3026 RMK A01 T00681040  RH  046%=      5-min Rain = 0
KSP2 191940Z 34013KT 07/M04 A3026 RMK A01 T00691039  RH  046%=      5-min Rain = 0
KSP2 191941Z 33011KT 07/M04 A3026 RMK A01 T00711038  RH  046%=      5-min Rain = 0
KSP2 191942Z 34013G18KT 07/M04 A3026 RMK A01 T00731038  RH  045%=      5-min Rain = 0
KSP2 191943Z 34014KT 07/M04 A3026 RMK A01 T00731038  RH  045%=      5-min Rain = 0
KSP2 191944Z 35012KT 07/M04 A3026 RMK A01 T00721040  RH  045%=      5-min Rain = 0
KSP2 191945Z 34012G18KT 07/M04 A3026 RMK A01 T00711040  RH  045%=      5-min Rain = 0
KSP2 191946Z 34014KT 07/M04 A3026 RMK A01 T00711040  RH  045%=      5-min Rain = 0
KSP2 191947Z 33016KT 07/M04 A3026 RMK A01 T00701039  RH  046%=      5-min Rain = 0
KSP2 191948Z 33014KT 07/M04 A3026 RMK A01 T00721038  RH  046%=      5-min Rain = 0
KSP2 191949Z 33012KT 07/M04 A3026 RMK A01 T00731037  RH  045%=      5-min Rain = 0
KSP2 191950Z 34014KT 08/M04 A3026 RMK A01 T00761035  RH  045%=      5-min Rain = 0
KSP2 191951Z 34014KT 08/M04 A3026 RMK A01 T00781036  RH  045%=      5-min Rain = 0
KSP2 191952Z 34011KT 08/M04 A3026 RMK A01 T00781039  RH  043%=      5-min Rain = 0
KSP2 191953Z 34012KT 08/M04 A3026 RMK A01 T00771040  RH  043%=      5-min Rain = 0
KSP2 191954Z 34013G18KT 08/M04 A3026 RMK A01 T00761041  RH  043%=      5-min Rain = 0
KSP2 191955Z 33013G18KT 07/M04 A3026 RMK A01 T00741040  RH  044%=      5-min Rain = 0
KSP2 191956Z 33019KT 08/M04 A3026 RMK A01 T00771040  RH  043%=      5-min Rain = 0
KSP2 191957Z 33015KT 08/M04 A3026 RMK A01 T00751043  RH  043%=      5-min Rain = 0
KSP2 191958Z 34013KT 07/M04 A3026 RMK A01 T00741042  RH  044%=      5-min Rain = 0
KSP2 191959Z 33011KT 08/M04 A3026 RMK A01 T00761039  RH  044%=      5-min Rain = 0
KSP2 192000Z 33014KT 08/M04 A3026 RMK A01 T00781038  RH  043%=      5-min Rain = 0
KSP2 192001Z 33016KT 08/M04 A3026 RMK A01 T00781038  RH  044%=      5-min Rain = 0
KSP2 192002Z 33017KT 08/M04 A3026 RMK A01 T00771042  RH  043%=      5-min Rain = 0
KSP2 192003Z 33017G22KT 07/M04 A3026 RMK A01 T00741043  RH  043%=      5-min Rain = 0
KSP2 192004Z 33016KT 07/M04 A3026 RMK A01 T00731042  RH  044%=      5-min Rain = 0
KSP2 192005Z 33013KT 07/M04 A3026 RMK A01 T00721043  RH  044%=      5-min Rain = 0
KSP2 192006Z 34011KT 07/M04 A3026 RMK A01 T00721042  RH  044%=      5-min Rain = 0
KSP2 192007Z 33014G19KT 08/M04 A3026 RMK A01 T00751038  RH  045%=      5-min Rain = 0
KSP2 192008Z 33016KT 08/M04 A3026 RMK A01 T00781040  RH  043%=      5-min Rain = 0
KSP2 192009Z 33015G22KT 08/M04 A3026 RMK A01 T00771040  RH  043%=      5-min Rain = 0
KSP2 192010Z 33017KT 08/M04 A3026 RMK A01 T00781042  RH  042%=      5-min Rain = 0
KSP2 192011Z 34016KT 08/M04 A3026 RMK A01 T00771041  RH  043%=      5-min Rain = 0
KSP2 192012Z 34017KT 08/M04 A3026 RMK A01 T00761042  RH  043%=      5-min Rain = 0
KSP2 192013Z 34013KT 08/M04 A3026 RMK A01 T00751042  RH  043%=      5-min Rain = 0
KSP2 192014Z 34014KT 08/M04 A3025 RMK A01 T00751040  RH  044%=      5-min Rain = 0
KSP2 192015Z 33017KT 08/M04 A3025 RMK A01 T00791038  RH  043%=      5-min Rain = 0
KSP2 192016Z 34015KT 08/M04 A3025 RMK A01 T00791042  RH  042%=      5-min Rain = 0
KSP2 192017Z 34012KT 08/M04 A3025 RMK A01 T00781041  RH  043%=      5-min Rain = 0
KSP2 192018Z 34014KT 08/M04 A3025 RMK A01 T00801039  RH  043%=      5-min Rain = 0
KSP2 192019Z 34014KT 08/M04 A3025 RMK A01 T00791041  RH  042%=      5-min Rain = 0
KSP2 192020Z 35014KT 08/M04 A3025 RMK A01 T00781039  RH  043%=      5-min Rain = 0
KSP2 192021Z 34014KT 08/M04 A3025 RMK A01 T00791039  RH  043%=      5-min Rain = 0
KSP2 192022Z 33016G21KT 08/M04 A3025 RMK A01 T00811037  RH  043%=      5-min Rain = 0
KSP2 192023Z 33016KT 08/M04 A3025 RMK A01 T00801043  RH  042%=      5-min Rain = 0
KSP2 192024Z 35015KT 08/M04 A3025 RMK A01 T00771044  RH  042%=      5-min Rain = 0
KSP2 192025Z 35015KT 08/M04 A3025 RMK A01 T00771042  RH  043%=      5-min Rain = 0
KSP2 192026Z 35011KT 08/M04 A3025 RMK A01 T00781039  RH  043%=      5-min Rain = 0
KSP2 192027Z 35013KT 08/M04 A3025 RMK A01 T00831037  RH  043%=      5-min Rain = 0
KSP2 192028Z 32016G22KT 08/M04 A3025 RMK A01 T00841040  RH  041%=      5-min Rain = 0
KSP2 192029Z 33017KT 08/M04 A3025 RMK A01 T00811042  RH  041%=      5-min Rain = 0
KSP2 192030Z 34015KT 08/M04 A3025 RMK A01 T00791043  RH  042%=      5-min Rain = 0
KSP2 192031Z 32012KT 08/M04 A3025 RMK A01 T00791041  RH  042%=      5-min Rain = 0
KSP2 192032Z 33016KT 08/M04 A3025 RMK A01 T00811041  RH  042%=      5-min Rain = 0
KSP2 192033Z 33015KT 08/M04 A3025 RMK A01 T00811043  RH  041%=      5-min Rain = 0
KSP2 192034Z 34013KT 08/M04 A3025 RMK A01 T00781043  RH  042%=      5-min Rain = 0
KSP2 192035Z 34016KT 08/M04 A3025 RMK A01 T00781043  RH  042%=      5-min Rain = 0
KSP2 192036Z 35016KT 08/M04 A3025 RMK A01 T00791044  RH  041%=      5-min Rain = 0
KSP2 192037Z 35016KT 08/M04 A3025 RMK A01 T00791044  RH  041%=      5-min Rain = 0
KSP2 192038Z 34017KT 08/M04 A3025 RMK A01 T00801043  RH  042%=      5-min Rain = 0
KSP2 192039Z 34017KT 08/M04 A3025 RMK A01 T00821042  RH  041%=      5-min Rain = 0
KSP2 192040Z 35015KT 08/M04 A3025 RMK A01 T00821043  RH  041%=      5-min Rain = 0
KSP2 192041Z 34014KT 08/M04 A3025 RMK A01 T00821042  RH  041%=      5-min Rain = 0
KSP2 192042Z 34011KT 08/M04 A3025 RMK A01 T00831043  RH  041%=      5-min Rain = 0
KSP2 192043Z 34016G21KT 08/M04 A3025 RMK A01 T00841040  RH  041%=      5-min Rain = 0
KSP2 192044Z 36017KT 09/M04 A3025 RMK A01 T00861043  RH  040%=      5-min Rain = 0
KSP2 192045Z 34014KT 08/M05 A3025 RMK A01 T00831045  RH  040%=      5-min Rain = 0
KSP2 192046Z 34016KT 08/M04 A3025 RMK A01 T00841042  RH  041%=      5-min Rain = 0
KSP2 192047Z 35017KT 08/M04 A3025 RMK A01 T00841043  RH  040%=      5-min Rain = 0
KSP2 192048Z 36017KT 08/M05 A3025 RMK A01 T00821045  RH  040%=      5-min Rain = 0
KSP2 192049Z 35017KT 08/M05 A3025 RMK A01 T00811045  RH  041%=      5-min Rain = 0
KSP2 192050Z 35014KT 08/M04 A3025 RMK A01 T00811043  RH  041%=      5-min Rain = 0
KSP2 192051Z 35014KT 08/M04 A3025 RMK A01 T00821043  RH  041%=      5-min Rain = 0
KSP2 192052Z 34015KT 08/M04 A3025 RMK A01 T00831042  RH  041%=      5-min Rain = 0
KSP2 192053Z 34015G21KT 08/M04 A3025 RMK A01 T00841042  RH  041%=      5-min Rain = 0
KSP2 192054Z 33016KT 08/M04 A3025 RMK A01 T00841043  RH  041%=      5-min Rain = 0
KSP2 192055Z 34015KT 08/M04 A3025 RMK A01 T00821043  RH  041%=      5-min Rain = 0
KSP2 192056Z 34016KT 08/M04 A3025 RMK A01 T00841042  RH  041%=      5-min Rain = 0
KSP2 192057Z 34013KT 08/M04 A3025 RMK A01 T00841041  RH  041%=      5-min Rain = 0
KSP2 192058Z 34014KT 09/M04 A3025 RMK A01 T00851041  RH  041%=      5-min Rain = 0
KSP2 192059Z 33014KT 09/M04 A3025 RMK A01 T00851041  RH  041%=      5-min Rain = 0
KSP2 192100Z 33013KT 09/M04 A3025 RMK A01 T00861040  RH  041%=      5-min Rain = 0
KSP2 192101Z 33013KT 09/M04 A3025 RMK A01 T00861041  RH  040%=      5-min Rain = 0
KSP2 192102Z 33014KT 09/M04 A3025 RMK A01 T00871040  RH  041%=      5-min Rain = 0
KSP2 192103Z 33017KT 09/M04 A3025 RMK A01 T00871041  RH  040%=      5-min Rain = 0
KSP2 192104Z 33016KT 09/M04 A3025 RMK A01 T00851043  RH  040%=      5-min Rain = 0
KSP2 192105Z 32016KT 08/M04 A3025 RMK A01 T00831044  RH  040%=      5-min Rain = 0
KSP2 192106Z 33017G22KT 08/M04 A3025 RMK A01 T00841043  RH  040%=      5-min Rain = 0
KSP2 192107Z 33016KT 08/M05 A3025 RMK A01 T00831045  RH  040%=      5-min Rain = 0
KSP2 192108Z 35015G20KT 08/M04 A3025 RMK A01 T00821044  RH  041%=      5-min Rain = 0
KSP2 192109Z 35017KT 08/M04 A3025 RMK A01 T00841042  RH  041%=      5-min Rain = 0
KSP2 192110Z 35017KT 08/M04 A3026 RMK A01 T00841044  RH  040%=      5-min Rain = 0
KSP2 192111Z 35013KT 08/M04 A3026 RMK A01 T00821044  RH  041%=      5-min Rain = 0
KSP2 192112Z 34015KT 08/M04 A3026 RMK A01 T00841041  RH  041%=      5-min Rain = 0
KSP2 192113Z 34015KT 09/M04 A3026 RMK A01 T00851042  RH  040%=      5-min Rain = 0
KSP2 192114Z 34013KT 09/M04 A3026 RMK A01 T00861042  RH  040%=      5-min Rain = 0
KSP2 192115Z 34014G20KT 09/M04 A3026 RMK A01 T00871041  RH  040%=      5-min Rain = 0
KSP2 192116Z 34016KT 09/M04 A3026 RMK A01 T00881040  RH  040%=      5-min Rain = 0
KSP2 192117Z 34012KT 09/M04 A3026 RMK A01 T00881040  RH  040%=      5-min Rain = 0
KSP2 192118Z 33013KT 09/M04 A3026 RMK A01 T00891041  RH  040%=      5-min Rain = 0
KSP2 192119Z 32012G17KT 09/M04 A3026 RMK A01 T00861042  RH  040%=      5-min Rain = 0
KSP2 192120Z 32015KT 09/M04 A3026 RMK A01 T00861042  RH  040%=      5-min Rain = 0
KSP2 192121Z 32016KT 09/M04 A3026 RMK A01 T00861041  RH  040%=      5-min Rain = 0
KSP2 192122Z 32017KT 09/M04 A3026 RMK A01 T00871041  RH  040%=      5-min Rain = 0
KSP2 192123Z 33014KT 09/M04 A3026 RMK A01 T00861041  RH  040%=      5-min Rain = 0
KSP2 192124Z 33015KT 09/M04 A3026 RMK A01 T00871041  RH  040%=      5-min Rain = 0
KSP2 192125Z 34014KT 09/M04 A3026 RMK A01 T00871042  RH  040%=      5-min Rain = 0
KSP2 192126Z 34012KT 09/M04 A3026 RMK A01 T00861043  RH  040%=      5-min Rain = 0
KSP2 192127Z 33013KT 09/M04 A3026 RMK A01 T00851042  RH  040%=      5-min Rain = 0
KSP2 192128Z 32012KT 09/M04 A3026 RMK A01 T00871041  RH  040%=      5-min Rain = 0
KSP2 192129Z 33013KT 09/M04 A3026 RMK A01 T00881042  RH  040%=      5-min Rain = 0
KSP2 192130Z 33012KT 09/M04 A3026 RMK A01 T00891040  RH  040%=      5-min Rain = 0
KSP2 192131Z 33014KT 09/M04 A3026 RMK A01 T00901039  RH  040%=      5-min Rain = 0
KSP2 192132Z 33015KT 09/M04 A3026 RMK A01 T00891041  RH  040%=      5-min Rain = 0
KSP2 192133Z 33012KT 09/M04 A3025 RMK A01 T00881039  RH  041%=      5-min Rain = 0
KSP2 192134Z 32014KT 09/M04 A3026 RMK A01 T00901040  RH  040%=      5-min Rain = 0
KSP2 192135Z 32014KT 09/M04 A3026 RMK A01 T00881042  RH  040%=      5-min Rain = 0
KSP2 192136Z 33011KT 09/M04 A3026 RMK A01 T00881039  RH  041%=      5-min Rain = 0
KSP2 192137Z 34011KT 09/M04 A3026 RMK A01 T00901037  RH  041%=      5-min Rain = 0
KSP2 192138Z 34010KT 09/M04 A3026 RMK A01 T00901038  RH  040%=      5-min Rain = 0
KSP2 192139Z 33012KT 09/M04 A3026 RMK A01 T00891038  RH  040%=      5-min Rain = 0
KSP2 192140Z 32012KT 09/M04 A3026 RMK A01 T00881040  RH  040%=      5-min Rain = 0
KSP2 192141Z 34013KT 09/M04 A3025 RMK A01 T00891042  RH  039%=      5-min Rain = 0
KSP2 192142Z 33013KT 09/M04 A3025 RMK A01 T00901041  RH  039%=      5-min Rain = 0
KSP2 192143Z 33014KT 09/M04 A3026 RMK A01 T00901041  RH  039%=      5-min Rain = 0
KSP2 192144Z 34014KT 09/M04 A3026 RMK A01 T00911042  RH  039%=      5-min Rain = 0
KSP2 192145Z 35013KT 09/M04 A3025 RMK A01 T00891043  RH  039%=      5-min Rain = 0
KSP2 192146Z 34012KT 09/M04 A3026 RMK A01 T00881043  RH  039%=      5-min Rain = 0
KSP2 192147Z 34013KT 09/M04 A3026 RMK A01 T00881043  RH  039%=      5-min Rain = 0
KSP2 192148Z 34011KT 09/M04 A3026 RMK A01 T00881042  RH  039%=      5-min Rain = 0
KSP2 192149Z 33012G18KT 09/M04 A3026 RMK A01 T00891042  RH  039%=      5-min Rain = 0
KSP2 192150Z 32016KT 09/M04 A3026 RMK A01 T00901043  RH  039%=      5-min Rain = 0
KSP2 192151Z 33015KT 09/M04 A3026 RMK A01 T00891044  RH  039%=      5-min Rain = 0
KSP2 192152Z 34015KT 09/M04 A3026 RMK A01 T00891043  RH  039%=      5-min Rain = 0
KSP2 192153Z 34012KT 09/M04 A3026 RMK A01 T00881043  RH  039%=      5-min Rain = 0
KSP2 192154Z 35012KT 09/M04 A3026 RMK A01 T00881042  RH  039%=      5-min Rain = 0
KSP2 192155Z 35014KT 09/M04 A3026 RMK A01 T00891042  RH  039%=      5-min Rain = 0
KSP2 192156Z 35011KT 09/M04 A3026 RMK A01 T00891042  RH  039%=      5-min Rain = 0
KSP2 192157Z 32014G19KT 09/M04 A3026 RMK A01 T00891043  RH  039%=      5-min Rain = 0
KSP2 192158Z 33014KT 09/M04 A3026 RMK A01 T00891043  RH  039%=      5-min Rain = 0
KSP2 192159Z 34013KT 09/M05 A3026 RMK A01 T00871045  RH  039%=      5-min Rain = 0
KSP2 192200Z 34011KT 09/M04 A3026 RMK A01 T00871042  RH  040%=      5-min Rain = 0
KSP2 192201Z 36014KT 09/M04 A3026 RMK A01 T00881042  RH  040%=      5-min Rain = 0
KSP2 192202Z 34013KT 09/M04 A3026 RMK A01 T00871043  RH  040%=      5-min Rain = 0
KSP2 192203Z 33012KT 09/M04 A3026 RMK A01 T00861041  RH  040%=      5-min Rain = 0
KSP2 192204Z 33012KT 09/M04 A3026 RMK A01 T00871041  RH  040%=      5-min Rain = 0
KSP2 192205Z 34012KT 09/M04 A3026 RMK A01 T00871041  RH  040%=      5-min Rain = 0
KSP2 192206Z 33011KT 09/M04 A3026 RMK A01 T00871041  RH  040%=      5-min Rain = 0
KSP2 192207Z 32012KT 09/M04 A3026 RMK A01 T00881041  RH  040%=      5-min Rain = 0
KSP2 192208Z 33015KT 09/M04 A3026 RMK A01 T00891043  RH  039%=      5-min Rain = 0
KSP2 192209Z 32013KT 09/M05 A3026 RMK A01 T00881045  RH  039%=      5-min Rain = 0
KSP2 192210Z 33011KT 09/M05 A3026 RMK A01 T00871045  RH  039%=      5-min Rain = 0
KSP2 192211Z 34011KT 09/M04 A3026 RMK A01 T00871043  RH  039%=      5-min Rain = 0
KSP2 192212Z 34010KT 09/M04 A3026 RMK A01 T00891041  RH  040%=      5-min Rain = 0
KSP2 192213Z 33011KT 09/M04 A3026 RMK A01 T00911042  RH  039%=      5-min Rain = 0
KSP2 192214Z 33010KT 09/M05 A3026 RMK A01 T00901045  RH  038%=      5-min Rain = 0
KSP2 192215Z 35011KT 09/M04 A3026 RMK A01 T00911043  RH  039%=      5-min Rain = 0
KSP2 192216Z 33012G17KT 09/M04 A3026 RMK A01 T00911044  RH  038%=      5-min Rain = 0
KSP2 192217Z 33015KT 09/M05 A3026 RMK A01 T00911047  RH  037%=      5-min Rain = 0
KSP2 192218Z 32013KT 09/M05 A3026 RMK A01 T00881048  RH  038%=      5-min Rain = 0
KSP2 192219Z 34014KT 09/M05 A3026 RMK A01 T00871047  RH  038%=      5-min Rain = 0
KSP2 192220Z 35011KT 09/M05 A3026 RMK A01 T00871046  RH  039%=      5-min Rain = 0
KSP2 192221Z 35014KT 09/M05 A3026 RMK A01 T00881046  RH  039%=      5-min Rain = 0
KSP2 192222Z 35009KT 09/M05 A3026 RMK A01 T00871046  RH  039%=      5-min Rain = 0
KSP2 192223Z 34012KT 09/M05 A3026 RMK A01 T00871045  RH  039%=      5-min Rain = 0
KSP2 192224Z 33012G17KT 09/M05 A3026 RMK A01 T00881046  RH  039%=      5-min Rain = 0
KSP2 192225Z 32014KT 09/M05 A3026 RMK A01 T00891048  RH  038%=      5-min Rain = 0
KSP2 192226Z 33011KT 09/M05 A3026 RMK A01 T00871048  RH  038%=      5-min Rain = 0
KSP2 192227Z 33012KT 09/M05 A3026 RMK A01 T00871048  RH  038%=      5-min Rain = 0
KSP2 192228Z 34011KT 09/M05 A3026 RMK A01 T00871047  RH  038%=      5-min Rain = 0
KSP2 192229Z 34013KT 09/M05 A3026 RMK A01 T00881046  RH  039%=      5-min Rain = 0
KSP2 192230Z 33012KT 09/M05 A3026 RMK A01 T00881046  RH  039%=      5-min Rain = 0
KSP2 192231Z 32011KT 09/M05 A3026 RMK A01 T00881046  RH  038%=      5-min Rain = 0
KSP2 192232Z 34012KT 09/M05 A3026 RMK A01 T00881046  RH  039%=      5-min Rain = 0
KSP2 192233Z 32010KT 09/M05 A3026 RMK A01 T00881047  RH  038%=      5-min Rain = 0
KSP2 192234Z 34013KT 09/M05 A3026 RMK A01 T00871047  RH  039%=      5-min Rain = 0
KSP2 192235Z 34011KT 09/M05 A3026 RMK A01 T00861047  RH  039%=      5-min Rain = 0
KSP2 192236Z 33014KT 09/M05 A3026 RMK A01 T00861046  RH  039%=      5-min Rain = 0
KSP2 192237Z 33015KT 09/M05 A3026 RMK A01 T00861047  RH  038%=      5-min Rain = 0
KSP2 192238Z 34014KT 09/M05 A3026 RMK A01 T00851048  RH  039%=      5-min Rain = 0
KSP2 192239Z 34012KT 08/M05 A3026 RMK A01 T00841047  RH  039%=      5-min Rain = 0
KSP2 192240Z 33014KT 09/M05 A3026 RMK A01 T00851046  RH  039%=      5-min Rain = 0
KSP2 192241Z 33013KT 09/M05 A3026 RMK A01 T00851047  RH  039%=      5-min Rain = 0
KSP2 192242Z 34010KT 09/M05 A3026 RMK A01 T00851047  RH  039%=      5-min Rain = 0
KSP2 192243Z 34011KT 08/M05 A3026 RMK A01 T00841046  RH  039%=      5-min Rain = 0
KSP2 192244Z 34011KT 09/M05 A3026 RMK A01 T00851046  RH  039%=      5-min Rain = 0
KSP2 192245Z 34012KT 09/M05 A3026 RMK A01 T00851046  RH  039%=      5-min Rain = 0
KSP2 192246Z 34010KT 08/M05 A3026 RMK A01 T00841047  RH  039%=      5-min Rain = 0
KSP2 192247Z 34009KT 08/M05 A3026 RMK A01 T00841047  RH  039%=      5-min Rain = 0
KSP2 192248Z 34009KT 08/M05 A3026 RMK A01 T00841046  RH  039%=      5-min Rain = 0
KSP2 192249Z 35012KT 09/M05 A3026 RMK A01 T00851045  RH  040%=      5-min Rain = 0
KSP2 192250Z 35009KT 08/M05 A3026 RMK A01 T00841046  RH  040%=      5-min Rain = 0
KSP2 192251Z 35009KT 08/M04 A3026 RMK A01 T00841044  RH  040%=      5-min Rain = 0
KSP2 192252Z 34009KT 08/M04 A3026 RMK A01 T00841044  RH  040%=      5-min Rain = 0
KSP2 192253Z 33012KT 08/M04 A3026 RMK A01 T00841044  RH  040%=      5-min Rain = 0
KSP2 192254Z 33011KT 08/M05 A3026 RMK A01 T00841045  RH  040%=      5-min Rain = 0
KSP2 192255Z 34010KT 08/M05 A3026 RMK A01 T00831045  RH  040%=      5-min Rain = 0
KSP2 192256Z 34010KT 08/M05 A3026 RMK A01 T00831045  RH  040%=      5-min Rain = 0
KSP2 192257Z 34008KT 08/M05 A3026 RMK A01 T00831045  RH  040%=      5-min Rain = 0
KSP2 192258Z 34011KT 08/M04 A3026 RMK A01 T00831044  RH  040%=      5-min Rain = 0
KSP2 192259Z 34010KT 08/M05 A3026 RMK A01 T00831045  RH  040%=      5-min Rain = 0
KSP2 192300Z 35010KT 08/M04 A3026 RMK A01 T00831044  RH  040%=      5-min Rain = 0
KSP2 192301Z 35010KT 08/M04 A3026 RMK A01 T00821043  RH  041%=      5-min Rain = 0
KSP2 192302Z 35010KT 08/M04 A3026 RMK A01 T00821044  RH  041%=      5-min Rain = 0
KSP2 192303Z 35011KT 08/M04 A3026 RMK A01 T00821043  RH  041%=      5-min Rain = 0
KSP2 192304Z 34011KT 08/M04 A3026 RMK A01 T00821044  RH  041%=      5-min Rain = 0
KSP2 192305Z 35010KT 08/M04 A3026 RMK A01 T00811044  RH  041%=      5-min Rain = 0
KSP2 192306Z 36010KT 08/M04 A3026 RMK A01 T00811044  RH  041%=      5-min Rain = 0
KSP2 192307Z 35011KT 08/M04 A3026 RMK A01 T00811044  RH  041%=      5-min Rain = 0
KSP2 192308Z 35011KT 08/M05 A3026 RMK A01 T00801046  RH  041%=      5-min Rain = 0
KSP2 192309Z 35009KT 08/M05 A3026 RMK A01 T00791046  RH  041%=      5-min Rain = 0
KSP2 192310Z 36009KT 08/M05 A3026 RMK A01 T00791045  RH  041%=      5-min Rain = 0
KSP2 192311Z 35010KT 08/M05 A3026 RMK A01 T00791045  RH  041%=      5-min Rain = 0
KSP2 192312Z 35009KT 08/M04 A3026 RMK A01 T00791044  RH  041%=      5-min Rain = 0
KSP2 192313Z 35010KT 08/M04 A3026 RMK A01 T00791044  RH  042%=      5-min Rain = 0
KSP2 192314Z 35010KT 08/M04 A3026 RMK A01 T00781044  RH  042%=      5-min Rain = 0
KSP2 192315Z 34010KT 08/M04 A3026 RMK A01 T00781044  RH  042%=      5-min Rain = 0
KSP2 192316Z 35007KT 08/M04 A3026 RMK A01 T00781044  RH  042%=      5-min Rain = 0
KSP2 192317Z 36008KT 08/M04 A3026 RMK A01 T00781044  RH  042%=      5-min Rain = 0
KSP2 192318Z 36009KT 08/M05 A3026 RMK A01 T00771045  RH  042%=      5-min Rain = 0
KSP2 192319Z 35007KT 08/M05 A3026 RMK A01 T00771045  RH  042%=      5-min Rain = 0
KSP2 192320Z 35008KT 08/M05 A3026 RMK A01 T00761045  RH  042%=      5-min Rain = 0
KSP2 192321Z 36008KT 08/M05 A3026 RMK A01 T00761045  RH  042%=      5-min Rain = 0
KSP2 192322Z 35009KT 08/M05 A3026 RMK A01 T00761045  RH  042%=      5-min Rain = 0
KSP2 192323Z 35008KT 08/M04 A3026 RMK A01 T00751044  RH  042%=      5-min Rain = 0
KSP2 192324Z 35007KT 08/M04 A3026 RMK A01 T00751044  RH  043%=      5-min Rain = 0
KSP2 192325Z 35007KT 08/M04 A3026 RMK A01 T00751043  RH  043%=      5-min Rain = 0
KSP2 192326Z 35006KT 08/M04 A3026 RMK A01 T00751043  RH  043%=      5-min Rain = 0
KSP2 192327Z 35006KT 07/M04 A3026 RMK A01 T00741043  RH  043%=      5-min Rain = 0
KSP2 192328Z 34007KT 07/M04 A3026 RMK A01 T00731043  RH  043%=      5-min Rain = 0
KSP2 192329Z 34005KT 07/M04 A3026 RMK A01 T00731043  RH  044%=      5-min Rain = 0
KSP2 192330Z 33007KT 07/M04 A3026 RMK A01 T00731042  RH  044%=      5-min Rain = 0
KSP2 192331Z 34006KT 07/M04 A3026 RMK A01 T00731043  RH  044%=      5-min Rain = 0
KSP2 192332Z 35006KT 07/M04 A3026 RMK A01 T00721043  RH  044%=      5-min Rain = 0
KSP2 192333Z 35006KT 07/M04 A3026 RMK A01 T00711043  RH  044%=      5-min Rain = 0
KSP2 192334Z 35006KT 07/M04 A3026 RMK A01 T00711044  RH  044%=      5-min Rain = 0
KSP2 192335Z 34006KT 07/M04 A3026 RMK A01 T00701044  RH  044%=      5-min Rain = 0
KSP2 192336Z 34006KT 07/M04 A3026 RMK A01 T00691044  RH  044%=      5-min Rain = 0
KSP2 192337Z 34006KT 07/M04 A3027 RMK A01 T00691044  RH  044%=      5-min Rain = 0
KSP2 192338Z 34005KT 07/M04 A3027 RMK A01 T00681044  RH  045%=      5-min Rain = 0
KSP2 192339Z 34005KT 07/M04 A3027 RMK A01 T00671044  RH  045%=      5-min Rain = 0
KSP2 192340Z 34005KT 07/M04 A3027 RMK A01 T00661044  RH  045%=      5-min Rain = 0
KSP2 192341Z 34005KT 07/M04 A3027 RMK A01 T00651044  RH  046%=      5-min Rain = 0
KSP2 192342Z 35006KT 06/M04 A3027 RMK A01 T00641043  RH  046%=      5-min Rain = 0
KSP2 192343Z 34007KT 06/M04 A3027 RMK A01 T00641043  RH  046%=      5-min Rain = 0
KSP2 192344Z 34005KT 06/M04 A3027 RMK A01 T00631044  RH  046%=      5-min Rain = 0
KSP2 192345Z 34005KT 06/M04 A3027 RMK A01 T00621044  RH  047%=      5-min Rain = 0
KSP2 192346Z 34005KT 06/M04 A3027 RMK A01 T00621044  RH  047%=      5-min Rain = 0
KSP2 192347Z 34006KT 06/M04 A3027 RMK A01 T00611044  RH  047%=      5-min Rain = 0
KSP2 192348Z 35006KT 06/M04 A3027 RMK A01 T00601044  RH  047%=      5-min Rain = 0
KSP2 192349Z 35006KT 06/M04 A3027 RMK A01 T00591044  RH  048%=      5-min Rain = 0
KSP2 192350Z 35006KT 06/M04 A3026 RMK A01 T00581044  RH  048%=      5-min Rain = 0
KSP2 192351Z 34006KT 06/M04 A3026 RMK A01 T00571044  RH  048%=      5-min Rain = 0
KSP2 192352Z 34006KT 06/M04 A3026 RMK A01 T00561044  RH  049%=      5-min Rain = 0
KSP2 192353Z 34006KT 06/M04 A3026 RMK A01 T00561044  RH  049%=      5-min Rain = 0
KSP2 192354Z 34006KT 06/M04 A3026 RMK A01 T00551044  RH  049%=      5-min Rain = 0
KSP2 192355Z 33006KT 05/M04 A3026 RMK A01 T00531044  RH  050%=      5-min Rain = 0
KSP2 192356Z 33006KT 05/M04 A3026 RMK A01 T00521044  RH  050%=      5-min Rain = 0
KSP2 192357Z 34007KT 05/M04 A3026 RMK A01 T00511044  RH  050%=      5-min Rain = 0
KSP2 192358Z 34006KT 05/M04 A3027 RMK A01 T00511044  RH  051%=      5-min Rain = 0
KSP2 192359Z 34006KT 05/M04 A3027 RMK A01 T00501044  RH  051%=      5-min Rain = 0
KSP2 200000Z 35007KT 05/M04 A3027 RMK A01 T00491044  RH  051%=      5-min Rain = 0
KSP2 200001Z 35007KT 05/M05 A3026 RMK A01 T00481045  RH  051%=      5-min Rain = 0
KSP2 200002Z 35007KT 05/M05 A3026 RMK A01 T00471046  RH  051%=      5-min Rain = 0
KSP2 200003Z 35006KT 05/M05 A3026 RMK A01 T00461045  RH  052%=      5-min Rain = 0
KSP2 200004Z 35006KT 04/M05 A3027 RMK A01 T00441045  RH  052%=      5-min Rain = 0
KSP2 200005Z 35007KT 04/M05 A3027 RMK A01 T00431045  RH  053%=      5-min Rain = 0
KSP2 200006Z 35007KT 04/M05 A3027 RMK A01 T00421046  RH  053%=      5-min Rain = 0
KSP2 200007Z 34007KT 04/M05 A3027 RMK A01 T00411046  RH  053%=      5-min Rain = 0
KSP2 200008Z 34007KT 04/M05 A3027 RMK A01 T00391046  RH  054%=      5-min Rain = 0
KSP2 200009Z 35007KT 04/M05 A3026 RMK A01 T00381046  RH  054%=      5-min Rain = 0
KSP2 200010Z 35007KT 04/M05 A3026 RMK A01 T00371046  RH  054%=      5-min Rain = 0
KSP2 200011Z 35007KT 04/M05 A3026 RMK A01 T00371046  RH  055%=      5-min Rain = 0
KSP2 200012Z 35007KT 04/M05 A3026 RMK A01 T00371046  RH  055%=      5-min Rain = 0
KSP2 200013Z 35007KT 04/M05 A3026 RMK A01 T00371045  RH  055%=      5-min Rain = 0
KSP2 200014Z 35006KT 04/M05 A3026 RMK A01 T00371045  RH  055%=      5-min Rain = 0
KSP2 200015Z 35006KT 04/M05 A3026 RMK A01 T00371045  RH  055%=      5-min Rain = 0
KSP2 200016Z 35006KT 04/M04 A3026 RMK A01 T00371044  RH  055%=      5-min Rain = 0
KSP2 200017Z 35005KT 04/M05 A3026 RMK A01 T00361045  RH  056%=      5-min Rain = 0
KSP2 200018Z 36005KT 03/M05 A3026 RMK A01 T00341046  RH  056%=      5-min Rain = 0
KSP2 200019Z 36004KT 03/M05 A3026 RMK A01 T00321046  RH  057%=      5-min Rain = 0
KSP2 200020Z 36004KT 03/M05 A3026 RMK A01 T00311045  RH  058%=      5-min Rain = 0
KSP2 200021Z 36004KT 03/M04 A3027 RMK A01 T00301044  RH  058%=      5-min Rain = 0
KSP2 200022Z 36003KT 03/M04 A3027 RMK A01 T00291044  RH  059%=      5-min Rain = 0
KSP2 200023Z 35002KT 03/M05 A3027 RMK A01 T00281047  RH  058%=      5-min Rain = 0
KSP2 200024Z 35002KT 03/M05 A3027 RMK A01 T00261049  RH  058%=      5-min Rain = 0
KSP2 200025Z 00002KT 03/M05 A3027 RMK A01 T00251047  RH  059%=      5-min Rain = 0
KSP2 200026Z 00002KT 02/M05 A3027 RMK A01 T00241046  RH  060%=      5-min Rain = 0
KSP2 200027Z 02002KT 02/M05 A3027 RMK A01 T00241046  RH  059%=      5-min Rain = 0
KSP2 200028Z 02002KT 02/M05 A3027 RMK A01 T00241047  RH  059%=      5-min Rain = 0
KSP2 200029Z 03002KT 02/M05 A3027 RMK A01 T00241046  RH  060%=      5-min Rain = 0
KSP2 200030Z 03002KT 02/M05 A3027 RMK A01 T00231048  RH  059%=      5-min Rain = 0
KSP2 200031Z 03003KT 02/M05 A3027 RMK A01 T00231050  RH  059%=      5-min Rain = 0
KSP2 200032Z 02003KT 02/M05 A3027 RMK A01 T00221050  RH  059%=      5-min Rain = 0
KSP2 200033Z 02004KT 02/M05 A3027 RMK A01 T00221050  RH  059%=      5-min Rain = 0
KSP2 200034Z 02003KT 02/M05 A3027 RMK A01 T00221050  RH  059%=      5-min Rain = 0
KSP2 200035Z 02003KT 02/M05 A3027 RMK A01 T00211051  RH  059%=      5-min Rain = 0
KSP2 200036Z 02003KT 02/M05 A3027 RMK A01 T00211051  RH  059%=      5-min Rain = 0
KSP2 200037Z 02003KT 02/M05 A3027 RMK A01 T00191053  RH  059%=      5-min Rain = 0
KSP2 200038Z 02002KT 02/M05 A3027 RMK A01 T00171053  RH  059%=      5-min Rain = 0
KSP2 200039Z 02002KT 02/M05 A3027 RMK A01 T00161053  RH  060%=      5-min Rain = 0
KSP2 200040Z 02002KT 02/M05 A3027 RMK A01 T00151054  RH  060%=      5-min Rain = 0
KSP2 200041Z 02001KT 01/M06 A3027 RMK A01 T00131055  RH  061%=      5-min Rain = 0
KSP2 200042Z 02001KT 01/M06 A3027 RMK A01 T00121055  RH  061%=      5-min Rain = 0
KSP2 200043Z 02000KT 01/M06 A3027 RMK A01 T00101056  RH  061%=      5-min Rain = 0
KSP2 200044Z 00000KT 01/M06 A3027 RMK A01 T00101055  RH  062%=      5-min Rain = 0
KSP2 200045Z 02000KT 01/M06 A3027 RMK A01 T00091055  RH  062%=      5-min Rain = 0
KSP2 200046Z 02001KT 01/M06 A3027 RMK A01 T00081055  RH  063%=      5-min Rain = 0
KSP2 200047Z 02001KT 01/M06 A3027 RMK A01 T00071055  RH  063%=      5-min Rain = 0
KSP2 200048Z 02001KT 01/M06 A3027 RMK A01 T00071056  RH  063%=      5-min Rain = 0
KSP2 200049Z 03001KT 01/M06 A3027 RMK A01 T00061056  RH  063%=      5-min Rain = 0
KSP2 200050Z 02001KT 01/M06 A3027 RMK A01 T00051057  RH  063%=      5-min Rain = 0
KSP2 200051Z 02001KT 00/M06 A3027 RMK A01 T00041057  RH  064%=      5-min Rain = 0
KSP2 200052Z 02001KT 00/M06 A3027 RMK A01 T00031056  RH  065%=      5-min Rain = 0
KSP2 200053Z 02001KT 00/M06 A3027 RMK A01 T00021056  RH  065%=      5-min Rain = 0
KSP2 200054Z 02001KT 00/M06 A3027 RMK A01 T00011055  RH  066%=      5-min Rain = 0
KSP2 200055Z 02001KT 00/M06 A3027 RMK A01 T00011056  RH  066%=      5-min Rain = 0
KSP2 200056Z 02001KT 00/06 A3027 RMK A01 T00-00-57  RH  066%=      5-min Rain = 0
KSP2 200057Z 02001KT 00/06 A3027 RMK A01 T00-00-56  RH  066%=      5-min Rain = 0
KSP2 200058Z 02001KT M00/M06 A3027 RMK A01 T10011056  RH  067%=      5-min Rain = 0
KSP2 200059Z 03002KT M00/M06 A3027 RMK A01 T10011056  RH  066%=      5-min Rain = 0
KSP2 200100Z 04003KT M00/M06 A3027 RMK A01 T10011055  RH  067%=      5-min Rain = 0
KSP2 200101Z 03003KT 00/05 A3027 RMK A01 T00-00-54  RH  067%=      5-min Rain = 0
KSP2 200102Z 03003KT 00/M05 A3027 RMK A01 T00011054  RH  067%=      5-min Rain = 0
KSP2 200103Z 04004KT 00/M05 A3027 RMK A01 T00011054  RH  066%=      5-min Rain = 0
KSP2 200104Z 04005KT 00/M06 A3027 RMK A01 T00011055  RH  066%=      5-min Rain = 0
KSP2 200105Z 03006KT 00/06 A3027 RMK A01 T00-00-57  RH  065%=      5-min Rain = 0
KSP2 200106Z 04007KT M00/M06 A3027 RMK A01 T10031061  RH  065%=      5-min Rain = 0
KSP2 200107Z 04007KT M01/M06 A3026 RMK A01 T10061061  RH  066%=      5-min Rain = 0
KSP2 200108Z 04007KT M01/M06 A3026 RMK A01 T10081061  RH  067%=      5-min Rain = 0
KSP2 200109Z 04007KT M01/M06 A3026 RMK A01 T10091060  RH  068%=      5-min Rain = 0
KSP2 200110Z 03006KT M01/M06 A3026 RMK A01 T10091060  RH  069%=      5-min Rain = 0
KSP2 200111Z 03005KT M01/M06 A3026 RMK A01 T10091059  RH  069%=      5-min Rain = 0
KSP2 200112Z 03005KT M01/M06 A3026 RMK A01 T10081060  RH  068%=      5-min Rain = 0
KSP2 200113Z 03004KT M01/M06 A3026 RMK A01 T10081059  RH  068%=      5-min Rain = 0
KSP2 200114Z 02004KT M01/M06 A3026 RMK A01 T10081059  RH  069%=      5-min Rain = 0
KSP2 200115Z 02004KT M01/M06 A3026 RMK A01 T10081058  RH  069%=      5-min Rain = 0
KSP2 200116Z 03003KT M01/M06 A3026 RMK A01 T10081058  RH  068%=      5-min Rain = 0
KSP2 200117Z 02002KT M01/M06 A3027 RMK A01 T10081058  RH  069%=      5-min Rain = 0
KSP2 200118Z 02001KT M01/M06 A3027 RMK A01 T10081058  RH  069%=      5-min Rain = 0
KSP2 200119Z 00001KT M01/M06 A3027 RMK A01 T10071056  RH  069%=      5-min Rain = 0
KSP2 200120Z 01002KT M01/M06 A3027 RMK A01 T10051056  RH  069%=      5-min Rain = 0
KSP2 200121Z 00001KT M00/M06 A3027 RMK A01 T10041055  RH  069%=      5-min Rain = 0
KSP2 200122Z 31001KT M00/M06 A3026 RMK A01 T10031055  RH  068%=      5-min Rain = 0
KSP2 200123Z 29001KT M00/M06 A3026 RMK A01 T10021055  RH  068%=      5-min Rain = 0
KSP2 200124Z 29002KT M00/M06 A3026 RMK A01 T10031056  RH  067%=      5-min Rain = 0
KSP2 200125Z 28001KT M00/M06 A3026 RMK A01 T10041057  RH  068%=      5-min Rain = 0
KSP2 200126Z 27000KT M00/M06 A3026 RMK A01 T10041057  RH  068%=      5-min Rain = 0
KSP2 200127Z 00000KT M00/M06 A3026 RMK A01 T10041056  RH  068%=      5-min Rain = 0
KSP2 200128Z 00000KT M00/M05 A3026 RMK A01 T10031054  RH  068%=      5-min Rain = 0
KSP2 200129Z 00000KT M00/M06 A3026 RMK A01 T10021056  RH  067%=      5-min Rain = 0
KSP2 200130Z 00000KT M01/M06 A3026 RMK A01 T10051060  RH  066%=      5-min Rain = 0
KSP2 200131Z 00000KT M01/M06 A3026 RMK A01 T10101064  RH  067%=      5-min Rain = 0
KSP2 200132Z 30000KT M01/M06 A3026 RMK A01 T10141064  RH  069%=      5-min Rain = 0
KSP2 200133Z 30000KT M02/M07 A3026 RMK A01 T10181065  RH  071%=      5-min Rain = 0
KSP2 200134Z 30000KT M02/M06 A3025 RMK A01 T10211064  RH  072%=      5-min Rain = 0
KSP2 200135Z 30001KT M02/M06 A3025 RMK A01 T10221062  RH  074%=      5-min Rain = 0
KSP2 200136Z 30001KT M02/M06 A3025 RMK A01 T10221060  RH  075%=      5-min Rain = 0
KSP2 200137Z 30001KT M02/M06 A3025 RMK A01 T10231060  RH  076%=      5-min Rain = 0
KSP2 200138Z 09001KT M02/M06 A3025 RMK A01 T10221059  RH  076%=      5-min Rain = 0
KSP2 200139Z 10001KT M02/M06 A3025 RMK A01 T10231060  RH  076%=      5-min Rain = 0
KSP2 200140Z 10001KT M02/M06 A3025 RMK A01 T10231061  RH  075%=      5-min Rain = 0
KSP2 200141Z 12001KT M02/M06 A3025 RMK A01 T10231061  RH  075%=      5-min Rain = 0
KSP2 200142Z 14001KT M02/M06 A3025 RMK A01 T10241061  RH  075%=      5-min Rain = 0
KSP2 200143Z 14001KT M02/M06 A3025 RMK A01 T10241062  RH  075%=      5-min Rain = 0
KSP2 200144Z 15001KT M02/M06 A3025 RMK A01 T10241062  RH  075%=      5-min Rain = 0
KSP2 200145Z 14001KT M02/M06 A3025 RMK A01 T10241063  RH  075%=      5-min Rain = 0
KSP2 200146Z 14001KT M03/M06 A3025 RMK A01 T10251064  RH  075%=      5-min Rain = 0
KSP2 200147Z 13001KT M03/M06 A3025 RMK A01 T10261064  RH  075%=      5-min Rain = 0
KSP2 200148Z 11001KT M03/M07 A3025 RMK A01 T10271065  RH  075%=      5-min Rain = 0
KSP2 200149Z 11001KT M03/M07 A3025 RMK A01 T10291068  RH  075%=      5-min Rain = 0
KSP2 200150Z 09001KT M03/M07 A3025 RMK A01 T10321068  RH  076%=      5-min Rain = 0
KSP2 200151Z 08001KT M03/M07 A3025 RMK A01 T10331069  RH  076%=      5-min Rain = 0
KSP2 200152Z 06001KT M03/M07 A3025 RMK A01 T10341069  RH  077%=      5-min Rain = 0
KSP2 200153Z 05002KT M04/M07 A3025 RMK A01 T10351068  RH  078%=      5-min Rain = 0
KSP2 200154Z 05001KT M04/M07 A3025 RMK A01 T10351068  RH  078%=      5-min Rain = 0
KSP2 200155Z 05001KT M04/M07 A3025 RMK A01 T10351066  RH  079%=      5-min Rain = 0
KSP2 200156Z 05002KT M03/M06 A3025 RMK A01 T10341062  RH  081%=      5-min Rain = 0
KSP2 200157Z 05002KT M03/M06 A3025 RMK A01 T10311061  RH  080%=      5-min Rain = 0
KSP2 200158Z 05002KT M03/M06 A3025 RMK A01 T10311064  RH  078%=      5-min Rain = 0
KSP2 200159Z 04002KT M03/M07 A3025 RMK A01 T10311066  RH  077%=      5-min Rain = 0
KSP2 200200Z 05002KT M03/M07 A3025 RMK A01 T10311067  RH  076%=      5-min Rain = 0
KSP2 200201Z 06003KT M03/M07 A3025 RMK A01 T10321068  RH  076%=      5-min Rain = 0
KSP2 200202Z 07004KT M03/M07 A3025 RMK A01 T10341069  RH  077%=      5-min Rain = 0
KSP2 200203Z 08005KT M03/M07 A3025 RMK A01 T10331065  RH  078%=      5-min Rain = 0
KSP2 200204Z 07004KT M03/M06 A3025 RMK A01 T10301063  RH  078%=      5-min Rain = 0
KSP2 200205Z 07003KT M03/M06 A3025 RMK A01 T10291063  RH  077%=      5-min Rain = 0
KSP2 200206Z 07003KT M03/M06 A3025 RMK A01 T10271061  RH  078%=      5-min Rain = 0
KSP2 200207Z 08003KT M03/M06 A3025 RMK A01 T10251059  RH  077%=      5-min Rain = 0
KSP2 200208Z 08003KT M02/M06 A3025 RMK A01 T10231060  RH  076%=      5-min Rain = 0
KSP2 200209Z 09003KT M02/M06 A3025 RMK A01 T10231060  RH  075%=      5-min Rain = 0
KSP2 200210Z 09002KT M02/M06 A3025 RMK A01 T10231062  RH  074%=      5-min Rain = 0
KSP2 200211Z 11001KT M03/M07 A3025 RMK A01 T10251067  RH  073%=      5-min Rain = 0
KSP2 200212Z 11001KT M03/M07 A3025 RMK A01 T10261065  RH  074%=      5-min Rain = 0
KSP2 200213Z 12002KT M02/M06 A3025 RMK A01 T10241061  RH  075%=      5-min Rain = 0
KSP2 200214Z 13001KT M02/M06 A3025 RMK A01 T10211059  RH  075%=      5-min Rain = 0
KSP2 200215Z 13001KT M02/M06 A3025 RMK A01 T10191059  RH  074%=      5-min Rain = 0
KSP2 200216Z 11002KT M02/M06 A3026 RMK A01 T10191059  RH  074%=      5-min Rain = 0
KSP2 200217Z 11002KT M02/M06 A3026 RMK A01 T10181058  RH  074%=      5-min Rain = 0
KSP2 200218Z 11001KT M02/M06 A3026 RMK A01 T10171058  RH  073%=      5-min Rain = 0
KSP2 200219Z 11001KT M02/M06 A3026 RMK A01 T10171060  RH  072%=      5-min Rain = 0
KSP2 200220Z 11001KT M02/M06 A3026 RMK A01 T10181062  RH  072%=      5-min Rain = 0
KSP2 200221Z 09001KT M02/M06 A3026 RMK A01 T10191062  RH  073%=      5-min Rain = 0
KSP2 200222Z 10002KT M02/M06 A3027 RMK A01 T10201060  RH  074%=      5-min Rain = 0
KSP2 200223Z 11001KT M02/M06 A3027 RMK A01 T10201060  RH  074%=      5-min Rain = 0
KSP2 200224Z 11000KT M02/M06 A3027 RMK A01 T10201060  RH  074%=      5-min Rain = 0
KSP2 200225Z 17001KT M02/M06 A3027 RMK A01 T10201062  RH  073%=      5-min Rain = 0
KSP2 200226Z 19000KT M02/M06 A3027 RMK A01 T10211062  RH  073%=      5-min Rain = 0
KSP2 200227Z 00000KT M02/M06 A3027 RMK A01 T10221062  RH  074%=      5-min Rain = 0
KSP2 200228Z 00000KT M02/M06 A3027 RMK A01 T10201060  RH  074%=      5-min Rain = 0
KSP2 200229Z 00000KT M02/M06 A3027 RMK A01 T10191060  RH  074%=      5-min Rain = 0
KSP2 200230Z 00000KT M02/M06 A3027 RMK A01 T10191062  RH  072%=      5-min Rain = 0
KSP2 200231Z 00000KT M02/M07 A3027 RMK A01 T10211065  RH  072%=      5-min Rain = 0
KSP2 200232Z 00000KT M02/M07 A3027 RMK A01 T10231067  RH  072%=      5-min Rain = 0
KSP2 200233Z 26001KT M03/M07 A3027 RMK A01 T10251067  RH  073%=      5-min Rain = 0
KSP2 200234Z 26001KT M03/M07 A3027 RMK A01 T10261068  RH  073%=      5-min Rain = 0
KSP2 200235Z 26001KT M03/M07 A3027 RMK A01 T10271068  RH  073%=      5-min Rain = 0
KSP2 200236Z 26001KT M03/M07 A3027 RMK A01 T10271067  RH  074%=      5-min Rain = 0
KSP2 200237Z 26001KT M03/M07 A3027 RMK A01 T10281067  RH  074%=      5-min Rain = 0
KSP2 200238Z 26001KT M03/M07 A3027 RMK A01 T10291069  RH  074%=      5-min Rain = 0
KSP2 200239Z 24001KT M03/M07 A3027 RMK A01 T10301070  RH  074%=      5-min Rain = 0
KSP2 200240Z 23001KT M03/M07 A3027 RMK A01 T10311069  RH  075%=      5-min Rain = 0
KSP2 200241Z 22001KT M03/M07 A3027 RMK A01 T10321069  RH  076%=      5-min Rain = 0
KSP2 200242Z 22001KT M03/M07 A3028 RMK A01 T10331069  RH  076%=      5-min Rain = 0
KSP2 200243Z 22002KT M03/M07 A3028 RMK A01 T10341069  RH  076%=      5-min Rain = 0
KSP2 200244Z 22002KT M03/M07 A3028 RMK A01 T10331069  RH  076%=      5-min Rain = 0
KSP2 200245Z 21003KT M03/M07 A3028 RMK A01 T10331069  RH  076%=      5-min Rain = 0
KSP2 200246Z 20002KT M03/M07 A3028 RMK A01 T10331070  RH  075%=      5-min Rain = 0
KSP2 200247Z 20003KT M03/M07 A3028 RMK A01 T10331069  RH  076%=      5-min Rain = 0
KSP2 200248Z 19003KT M03/M07 A3029 RMK A01 T10341070  RH  076%=      5-min Rain = 0
KSP2 200249Z 19003KT M04/M07 A3029 RMK A01 T10351071  RH  076%=      5-min Rain = 0
KSP2 200250Z 19003KT M04/M07 A3029 RMK A01 T10371072  RH  077%=      5-min Rain = 0
KSP2 200251Z 20003KT M04/M07 A3029 RMK A01 T10391073  RH  078%=      5-min Rain = 0
KSP2 200252Z 21004KT M04/M07 A3029 RMK A01 T10411072  RH  079%=      5-min Rain = 0
KSP2 200253Z 21004KT M04/M07 A3029 RMK A01 T10401069  RH  080%=      5-min Rain = 0
KSP2 200254Z 21004KT M04/M07 A3029 RMK A01 T10381070  RH  079%=      5-min Rain = 0
KSP2 200255Z 21004KT M04/M07 A3029 RMK A01 T10381068  RH  079%=      5-min Rain = 0
KSP2 200256Z 21003KT M04/M07 A3028 RMK A01 T10371067  RH  080%=      5-min Rain = 0
KSP2 200257Z 22002KT M04/M07 A3028 RMK A01 T10361067  RH  079%=      5-min Rain = 0
KSP2 200258Z 22002KT M04/M07 A3028 RMK A01 T10371067  RH  079%=      5-min Rain = 0
KSP2 200259Z 22002KT M04/M07 A3028 RMK A01 T10371068  RH  080%=      5-min Rain = 0
KSP2 200300Z 21002KT M04/M07 A3028 RMK A01 T10381066  RH  081%=      5-min Rain = 0
KSP2 200301Z 21002KT M04/M07 A3028 RMK A01 T10381066  RH  081%=      5-min Rain = 0
KSP2 200302Z 21001KT M04/M07 A3028 RMK A01 T10381066  RH  081%=      5-min Rain = 0
KSP2 200303Z 21000KT M04/M07 A3028 RMK A01 T10381067  RH  080%=      5-min Rain = 0
KSP2 200304Z 00000KT M04/M07 A3028 RMK A01 T10381066  RH  081%=      5-min Rain = 0
KSP2 200305Z 00000KT M04/M06 A3028 RMK A01 T10371064  RH  081%=      5-min Rain = 0
KSP2 200306Z 00000KT M04/M06 A3028 RMK A01 T10361063  RH  082%=      5-min Rain = 0
KSP2 200307Z 00000KT M04/M06 A3028 RMK A01 T10361063  RH  081%=      5-min Rain = 0
KSP2 200308Z 00000KT M04/M06 A3028 RMK A01 T10361064  RH  081%=      5-min Rain = 0
KSP2 200309Z 00000KT M04/M06 A3028 RMK A01 T10361063  RH  081%=      5-min Rain = 0
KSP2 200310Z 00000KT M04/M06 A3028 RMK A01 T10371064  RH  082%=      5-min Rain = 0
KSP2 200311Z 00000KT M04/M06 A3028 RMK A01 T10371063  RH  082%=      5-min Rain = 0
KSP2 200312Z 00000KT M04/M06 A3028 RMK A01 T10371062  RH  083%=      5-min Rain = 0
KSP2 200313Z 00000KT M04/M06 A3028 RMK A01 T10371060  RH  084%=      5-min Rain = 0
KSP2 200314Z 00000KT M04/M06 A3028 RMK A01 T10361060  RH  083%=      5-min Rain = 0
KSP2 200315Z 00000KT M04/M06 A3028 RMK A01 T10351060  RH  083%=      5-min Rain = 0
KSP2 200316Z 21000KT M04/M06 A3028 RMK A01 T10351060  RH  083%=      5-min Rain = 0
KSP2 200317Z 21000KT M03/M06 A3028 RMK A01 T10341060  RH  083%=      5-min Rain = 0
KSP2 200318Z 00000KT M03/M06 A3028 RMK A01 T10341061  RH  082%=      5-min Rain = 0
KSP2 200319Z 00000KT M03/M06 A3028 RMK A01 T10331060  RH  082%=      5-min Rain = 0
KSP2 200320Z 00000KT M03/M06 A3028 RMK A01 T10321060  RH  081%=      5-min Rain = 0
KSP2 200321Z 00000KT M03/M06 A3028 RMK A01 T10321060  RH  081%=      5-min Rain = 0
KSP2 200322Z 00000KT M03/M06 A3028 RMK A01 T10331062  RH  080%=      5-min Rain = 0
KSP2 200323Z 00000KT M03/M06 A3028 RMK A01 T10341064  RH  080%=      5-min Rain = 0
KSP2 200324Z 18000KT M04/M07 A3028 RMK A01 T10351066  RH  079%=      5-min Rain = 0
KSP2 200325Z 18001KT M04/M07 A3028 RMK A01 T10351067  RH  079%=      5-min Rain = 0
KSP2 200326Z 17001KT M04/M07 A3028 RMK A01 T10361067  RH  079%=      5-min Rain = 0
KSP2 200327Z 17003KT M04/M07 A3028 RMK A01 T10361068  RH  079%=      5-min Rain = 0
KSP2 200328Z 18002KT M04/M07 A3028 RMK A01 T10361068  RH  078%=      5-min Rain = 0
KSP2 200329Z 17003KT M04/M07 A3028 RMK A01 T10381069  RH  079%=      5-min Rain = 0
KSP2 200330Z 16003KT M04/M07 A3027 RMK A01 T10381069  RH  079%=      5-min Rain = 0
KSP2 200331Z 16003KT M04/M07 A3027 RMK A01 T10401068  RH  081%=      5-min Rain = 0
KSP2 200332Z 15003KT M04/M07 A3027 RMK A01 T10411068  RH  081%=      5-min Rain = 0
KSP2 200333Z 15003KT M04/M07 A3027 RMK A01 T10431070  RH  081%=      5-min Rain = 0
KSP2 200334Z 15004KT M04/M07 A3027 RMK A01 T10441071  RH  081%=      5-min Rain = 0
KSP2 200335Z 14004KT M05/M07 A3027 RMK A01 T10461072  RH  082%=      5-min Rain = 0
KSP2 200336Z 13004KT M05/M07 A3027 RMK A01 T10471072  RH  083%=      5-min Rain = 0
KSP2 200337Z 13004KT M05/M07 A3027 RMK A01 T10481072  RH  083%=      5-min Rain = 0
KSP2 200338Z 12004KT M05/M07 A3027 RMK A01 T10491072  RH  083%=      5-min Rain = 0
KSP2 200339Z 12005KT M05/M07 A3027 RMK A01 T10491072  RH  084%=      5-min Rain = 0
KSP2 200340Z 12006KT M05/M07 A3026 RMK A01 T10491070  RH  085%=      5-min Rain = 0
KSP2 200341Z 12006KT M05/M07 A3027 RMK A01 T10481068  RH  086%=      5-min Rain = 0
KSP2 200342Z 13005KT M05/M07 A3027 RMK A01 T10481066  RH  087%=      5-min Rain = 0
KSP2 200343Z 13003KT M05/M07 A3027 RMK A01 T10471066  RH  087%=      5-min Rain = 0
KSP2 200344Z 15002KT M05/M07 A3027 RMK A01 T10471067  RH  086%=      5-min Rain = 0
KSP2 200345Z 14002KT M05/M07 A3027 RMK A01 T10461067  RH  085%=      5-min Rain = 0
KSP2 200346Z 13002KT M05/M07 A3027 RMK A01 T10451067  RH  084%=      5-min Rain = 0
KSP2 200347Z 11002KT M05/M07 A3027 RMK A01 T10451068  RH  084%=      5-min Rain = 0
KSP2 200348Z 11003KT M04/M07 A3027 RMK A01 T10441066  RH  085%=      5-min Rain = 0
KSP2 200349Z 12003KT M04/M06 A3027 RMK A01 T10421064  RH  085%=      5-min Rain = 0
KSP2 200350Z 11004KT M04/M06 A3027 RMK A01 T10411063  RH  085%=      5-min Rain = 0
KSP2 200351Z 11004KT M04/M06 A3027 RMK A01 T10401062  RH  085%=      5-min Rain = 0
KSP2 200352Z 11004KT M04/M06 A3027 RMK A01 T10401061  RH  085%=      5-min Rain = 0
KSP2 200353Z 11004KT M04/M06 A3026 RMK A01 T10401061  RH  085%=      5-min Rain = 0
KSP2 200354Z 10004KT M04/M06 A3026 RMK A01 T10401062  RH  085%=      5-min Rain = 0
KSP2 200355Z 10004KT M04/M06 A3027 RMK A01 T10411063  RH  085%=      5-min Rain = 0
KSP2 200356Z 10003KT M04/M06 A3027 RMK A01 T10421064  RH  085%=      5-min Rain = 0
KSP2 200357Z 10003KT M04/M06 A3027 RMK A01 T10421063  RH  085%=      5-min Rain = 0
KSP2 200358Z 11001KT M04/M06 A3027 RMK A01 T10431062  RH  086%=      5-min Rain = 0
KSP2 200359Z 13001KT M04/M06 A3027 RMK A01 T10431061  RH  087%=      5-min Rain = 0
KSP2 200400Z 11002KT M04/M06 A3026 RMK A01 T10421062  RH  086%=      5-min Rain = 0
KSP2 200401Z 11003KT M04/M06 A3026 RMK A01 T10421062  RH  086%=      5-min Rain = 0
KSP2 200402Z 11003KT M04/M06 A3026 RMK A01 T10411061  RH  086%=      5-min Rain = 0
KSP2 200403Z 13003KT M04/M06 A3026 RMK A01 T10411063  RH  085%=      5-min Rain = 0
KSP2 200404Z 14003KT M04/M06 A3027 RMK A01 T10411062  RH  085%=      5-min Rain = 0
KSP2 200405Z 14003KT M04/M06 A3027 RMK A01 T10391060  RH  086%=      5-min Rain = 0
KSP2 200406Z 14002KT M04/M06 A3027 RMK A01 T10371059  RH  085%=      5-min Rain = 0
KSP2 200407Z 13002KT M04/M06 A3028 RMK A01 T10371059  RH  084%=      5-min Rain = 0
KSP2 200408Z 12002KT M04/M06 A3028 RMK A01 T10361059  RH  084%=      5-min Rain = 0
KSP2 200409Z 11002KT M04/M06 A3028 RMK A01 T10361060  RH  083%=      5-min Rain = 0
KSP2 200410Z 11002KT M04/M06 A3027 RMK A01 T10361061  RH  083%=      5-min Rain = 0
KSP2 200411Z 11003KT M04/M06 A3027 RMK A01 T10371062  RH  083%=      5-min Rain = 0
KSP2 200412Z 11003KT M04/M06 A3028 RMK A01 T10371061  RH  083%=      5-min Rain = 0
KSP2 200413Z 11003KT M04/M06 A3028 RMK A01 T10371061  RH  084%=      5-min Rain = 0
KSP2 200414Z 11003KT M04/M06 A3028 RMK A01 T10381061  RH  084%=      5-min Rain = 0
KSP2 200415Z 11002KT M04/M06 A3028 RMK A01 T10371059  RH  085%=      5-min Rain = 0
KSP2 200416Z 12002KT M04/M06 A3028 RMK A01 T10361058  RH  085%=      5-min Rain = 0
KSP2 200417Z 12003KT M04/M06 A3027 RMK A01 T10361059  RH  084%=      5-min Rain = 0
KSP2 200418Z 12004KT M04/M06 A3026 RMK A01 T10361059  RH  084%=      5-min Rain = 0
KSP2 200419Z 11005KT M04/M06 A3026 RMK A01 T10361062  RH  083%=      5-min Rain = 0
KSP2 200420Z 11005KT M04/M06 A3025 RMK A01 T10371064  RH  082%=      5-min Rain = 0
KSP2 200421Z 10005KT M04/M07 A3026 RMK A01 T10391066  RH  082%=      5-min Rain = 0
KSP2 200422Z 09006KT M04/M06 A3026 RMK A01 T10401063  RH  084%=      5-min Rain = 0
KSP2 200423Z 09005KT M04/M06 A3026 RMK A01 T10381060  RH  085%=      5-min Rain = 0
KSP2 200424Z 09005KT M04/M06 A3026 RMK A01 T10361058  RH  085%=      5-min Rain = 0
KSP2 200425Z 09004KT M04/M06 A3027 RMK A01 T10351059  RH  083%=      5-min Rain = 0
KSP2 200426Z 09004KT M04/M07 A3027 RMK A01 T10361065  RH  081%=      5-min Rain = 0
KSP2 200427Z 10003KT M04/M07 A3026 RMK A01 T10381067  RH  080%=      5-min Rain = 0
KSP2 200428Z 10003KT M04/M07 A3026 RMK A01 T10401065  RH  082%=      5-min Rain = 0
KSP2 200429Z 10003KT M04/M06 A3026 RMK A01 T10401063  RH  084%=      5-min Rain = 0
KSP2 200430Z 11002KT M04/M06 A3027 RMK A01 T10411062  RH  085%=      5-min Rain = 0
KSP2 200431Z 13002KT M04/M06 A3027 RMK A01 T10411062  RH  085%=      5-min Rain = 0
KSP2 200432Z 12002KT M04/M06 A3027 RMK A01 T10401061  RH  086%=      5-min Rain = 0
KSP2 200433Z 13001KT M04/M06 A3027 RMK A01 T10391061  RH  085%=      5-min Rain = 0
KSP2 200434Z 12002KT M04/M06 A3027 RMK A01 T10391062  RH  084%=      5-min Rain = 0
KSP2 200435Z 12001KT M04/M06 A3027 RMK A01 T10381061  RH  084%=      5-min Rain = 0
KSP2 200436Z 12001KT M04/M06 A3027 RMK A01 T10371059  RH  085%=      5-min Rain = 0
KSP2 200437Z 12002KT M04/M06 A3027 RMK A01 T10371059  RH  084%=      5-min Rain = 0
KSP2 200438Z 11003KT M04/M06 A3026 RMK A01 T10361059  RH  085%=      5-min Rain = 0
KSP2 200439Z 11003KT M04/M06 A3026 RMK A01 T10361058  RH  085%=      5-min Rain = 0
KSP2 200440Z 12003KT M04/M06 A3026 RMK A01 T10361059  RH  084%=      5-min Rain = 0
KSP2 200441Z 12004KT M04/M06 A3026 RMK A01 T10371060  RH  084%=      5-min Rain = 0
KSP2 200442Z 12004KT M04/M06 A3026 RMK A01 T10371061  RH  084%=      5-min Rain = 0
KSP2 200443Z 12004KT M04/M06 A3026 RMK A01 T10381062  RH  084%=      5-min Rain = 0
KSP2 200444Z 12004KT M04/M06 A3026 RMK A01 T10381063  RH  083%=      5-min Rain = 0
KSP2 200445Z 12004KT M04/M07 A3026 RMK A01 T10391065  RH  082%=      5-min Rain = 0
KSP2 200446Z 12004KT M04/M07 A3026 RMK A01 T10401066  RH  083%=      5-min Rain = 0
KSP2 200447Z 12004KT M04/M07 A3026 RMK A01 T10411065  RH  083%=      5-min Rain = 0
KSP2 200448Z 12004KT M04/M07 A3026 RMK A01 T10421067  RH  083%=      5-min Rain = 0
KSP2 200449Z 13003KT M04/M07 A3026 RMK A01 T10431069  RH  082%=      5-min Rain = 0
KSP2 200450Z 14002KT M05/M07 A3026 RMK A01 T10451071  RH  082%=      5-min Rain = 0
KSP2 200451Z 15002KT M05/M07 A3026 RMK A01 T10471070  RH  084%=      5-min Rain = 0
KSP2 200452Z 18002KT M05/M07 A3026 RMK A01 T10471068  RH  085%=      5-min Rain = 0
KSP2 200453Z 17002KT M05/M07 A3026 RMK A01 T10471067  RH  086%=      5-min Rain = 0
KSP2 200454Z 17003KT M05/M07 A3026 RMK A01 T10471066  RH  086%=      5-min Rain = 0
KSP2 200455Z 17003KT M05/M06 A3026 RMK A01 T10461063  RH  088%=      5-min Rain = 0
KSP2 200456Z 16003KT M04/M06 A3026 RMK A01 T10441061  RH  088%=      5-min Rain = 0
KSP2 200457Z 16003KT M04/M06 A3026 RMK A01 T10431061  RH  087%=      5-min Rain = 0
KSP2 200458Z 16003KT M04/M06 A3026 RMK A01 T10421061  RH  086%=      5-min Rain = 0
KSP2 200459Z 17003KT M04/M06 A3026 RMK A01 T10421062  RH  086%=      5-min Rain = 0
KSP2 200500Z 17003KT M04/M06 A3026 RMK A01 T10421062  RH  086%=      5-min Rain = 0
KSP2 200501Z 17003KT M04/M06 A3026 RMK A01 T10421062  RH  086%=      5-min Rain = 0
KSP2 200502Z 16004KT M04/M06 A3026 RMK A01 T10411062  RH  086%=      5-min Rain = 0
KSP2 200503Z 15005KT M04/M06 A3026 RMK A01 T10421062  RH  086%=      5-min Rain = 0
KSP2 200504Z 15005KT M04/M06 A3026 RMK A01 T10411062  RH  085%=      5-min Rain = 0
KSP2 200505Z 15004KT M04/M06 A3026 RMK A01 T10421064  RH  084%=      5-min Rain = 0
KSP2 200506Z 16003KT M04/M07 A3026 RMK A01 T10431066  RH  084%=      5-min Rain = 0
KSP2 200507Z 18003KT M04/M07 A3026 RMK A01 T10441066  RH  085%=      5-min Rain = 0
KSP2 200508Z 19003KT M04/M07 A3026 RMK A01 T10441066  RH  085%=      5-min Rain = 0
KSP2 200509Z 18004KT M05/M07 A3027 RMK A01 T10451067  RH  085%=      5-min Rain = 0
KSP2 200510Z 18004KT M05/M07 A3027 RMK A01 T10451065  RH  086%=      5-min Rain = 0
KSP2 200511Z 17003KT M04/M06 A3027 RMK A01 T10441063  RH  087%=      5-min Rain = 0
KSP2 200512Z 16003KT M04/M06 A3027 RMK A01 T10441063  RH  086%=      5-min Rain = 0
KSP2 200513Z 15003KT M04/M07 A3027 RMK A01 T10441065  RH  086%=      5-min Rain = 0
KSP2 200514Z 16003KT M05/M07 A3027 RMK A01 T10451067  RH  085%=      5-min Rain = 0
KSP2 200515Z 16003KT M05/M07 A3027 RMK A01 T10461068  RH  085%=      5-min Rain = 0
KSP2 200516Z 17003KT M05/M07 A3027 RMK A01 T10471068  RH  085%=      5-min Rain = 0
KSP2 200517Z 18003KT M05/M07 A3027 RMK A01 T10481068  RH  086%=      5-min Rain = 0
KSP2 200518Z 19003KT M05/M07 A3027 RMK A01 T10481067  RH  087%=      5-min Rain = 0
KSP2 200519Z 20002KT M05/M07 A3028 RMK A01 T10481068  RH  086%=      5-min Rain = 0
KSP2 200520Z 22002KT M05/M07 A3028 RMK A01 T10491069  RH  086%=      5-min Rain = 0
KSP2 200521Z 23002KT M05/M07 A3028 RMK A01 T10491068  RH  086%=      5-min Rain = 0
KSP2 200522Z 23002KT M05/M07 A3028 RMK A01 T10481065  RH  088%=      5-min Rain = 0
KSP2 200523Z 20002KT M05/M06 A3028 RMK A01 T10461063  RH  088%=      5-min Rain = 0
KSP2 200524Z 18002KT M05/M06 A3029 RMK A01 T10451064  RH  087%=      5-min Rain = 0
KSP2 200525Z 15001KT M05/M07 A3029 RMK A01 T10461069  RH  084%=      5-min Rain = 0
KSP2 200526Z 14002KT M05/M07 A3029 RMK A01 T10501074  RH  083%=      5-min Rain = 0
KSP2 200527Z 15002KT M05/M07 A3029 RMK A01 T10501068  RH  087%=      5-min Rain = 0
KSP2 200528Z 17003KT M05/M07 A3029 RMK A01 T10481065  RH  088%=      5-min Rain = 0
KSP2 200529Z 20003KT M05/M06 A3029 RMK A01 T10461063  RH  087%=      5-min Rain = 0
KSP2 200530Z 21003KT M04/M06 A3029 RMK A01 T10441063  RH  086%=      5-min Rain = 0
KSP2 200531Z 21004KT M05/M07 A3028 RMK A01 T10451066  RH  085%=      5-min Rain = 0
KSP2 200532Z 22004KT M05/M07 A3028 RMK A01 T10451066  RH  085%=      5-min Rain = 0
KSP2 200533Z 22004KT M05/M07 A3028 RMK A01 T10461067  RH  085%=      5-min Rain = 0
KSP2 200534Z 21003KT M05/M07 A3027 RMK A01 T10471067  RH  086%=      5-min Rain = 0
KSP2 200535Z 21003KT M05/M07 A3027 RMK A01 T10471066  RH  086%=      5-min Rain = 0
KSP2 200536Z 21002KT M05/M07 A3027 RMK A01 T10461066  RH  087%=      5-min Rain = 0
KSP2 200537Z 20002KT M05/M07 A3027 RMK A01 T10471066  RH  086%=      5-min Rain = 0
KSP2 200538Z 19001KT M05/M07 A3028 RMK A01 T10471068  RH  086%=      5-min Rain = 0
KSP2 200539Z 19001KT M05/M07 A3028 RMK A01 T10481065  RH  087%=      5-min Rain = 0
KSP2 200540Z 17001KT M05/M07 A3028 RMK A01 T10481066  RH  088%=      5-min Rain = 0
KSP2 200541Z 16001KT M05/M07 A3028 RMK A01 T10481065  RH  088%=      5-min Rain = 0
KSP2 200542Z 14001KT M05/M07 A3028 RMK A01 T10501070  RH  086%=      5-min Rain = 0
KSP2 200543Z 14001KT M05/M08 A3028 RMK A01 T10541077  RH  084%=      5-min Rain = 0
KSP2 200544Z 14001KT M06/M08 A3028 RMK A01 T10581079  RH  085%=      5-min Rain = 0
KSP2 200545Z 14000KT M06/M08 A3028 RMK A01 T10591077  RH  087%=      5-min Rain = 0
KSP2 200546Z 20001KT M06/M08 A3028 RMK A01 T10601076  RH  088%=      5-min Rain = 0
KSP2 200547Z 20001KT M06/M08 A3028 RMK A01 T10601076  RH  089%=      5-min Rain = 0
KSP2 200548Z 19001KT M06/M08 A3028 RMK A01 T10601075  RH  089%=      5-min Rain = 0
KSP2 200549Z 18001KT M06/M08 A3028 RMK A01 T10601075  RH  090%=      5-min Rain = 0
KSP2 200550Z 17000KT M06/M07 A3028 RMK A01 T10611074  RH  090%=      5-min Rain = 0
KSP2 200551Z 00000KT M06/M07 A3029 RMK A01 T10601073  RH  091%=      5-min Rain = 0
KSP2 200552Z 00000KT M06/M07 A3029 RMK A01 T10601072  RH  091%=      5-min Rain = 0
KSP2 200553Z 00000KT M06/M07 A3029 RMK A01 T10601071  RH  092%=      5-min Rain = 0
KSP2 200554Z 00000KT M06/M07 A3029 RMK A01 T10591070  RH  092%=      5-min Rain = 0
KSP2 200555Z 00000KT M06/M07 A3029 RMK A01 T10581068  RH  092%=      5-min Rain = 0
KSP2 200556Z 00000KT M06/M07 A3029 RMK A01 T10571067  RH  093%=      5-min Rain = 0
KSP2 200557Z 17000KT M06/M07 A3029 RMK A01 T10571067  RH  093%=      5-min Rain = 0
KSP2 200558Z 17001KT M06/M07 A3029 RMK A01 T10571066  RH  093%=      5-min Rain = 0
KSP2 200559Z 17001KT M06/M07 A3029 RMK A01 T10561066  RH  093%=      5-min Rain = 0

Page generated in 0.0347 seconds.